BE1355 / EI-GHK 7700 Squawk Report (10th of December, 2019)

Aircraft E190 Reg No. EI-GHK Age N/A
Model Emb-190 Jet engines 2 First flight 10-08
Registered 01-12-19 Rollout 10-08 Delivered 31-10-08
Construction No. 19000218 Line No. N/A Series 100IGW
ADSHEX 4CAFE1 Airline name FlyBE Owner Stobart Air
Airfield based Exeter~Devon~G First tracked 2018-11-20 15:21:00

Flight history for EI-GHK

Route Flight No Date Playback
Southampton (SOU) - Belfast City (BHD) BE982 2020-01-18 09:59:00
Belfast City (BHD) - Southampton (SOU) BE981 2020-01-18 08:44:00
City (LCY) - Belfast City (BHD) BE1360 2020-01-18 07:03:00
Belfast City (BHD) - City (LCY) BE1359 2020-01-17 19:19:00
City (LCY) - Belfast City (BHD) BE1356 2020-01-17 18:04:00
Belfast City (BHD) - City (LCY) BE1355 2020-01-17 14:50:00
City (LCY) - Belfast City (BHD) BE1360 2020-01-16 21:23:00
Belfast City (BHD) - City (LCY) BE1359 2020-01-16 19:47:00
City (LCY) - Belfast City (BHD) BE1356 2020-01-16 18:06:00
Belfast City (BHD) - City (LCY) BE1355 2020-01-16 14:55:00
City (LCY) - Belfast City (BHD) BE1352 2020-01-16 13:39:00
Belfast City (BHD) - City (LCY) BE1351 2020-01-16 08:55:00
City (LCY) - Belfast City (BHD) BE1360 2020-01-16 06:59:00
Belfast City (BHD) - City (LCY) BE1359 2020-01-15 18:59:00
City (LCY) - Belfast City (BHD) BE1356 2020-01-15 16:46:00
Newcastle (NCL) - Southampton (SOU) BE142 2020-01-15 16:31:00
Belfast City (BHD) - City (LCY) BE1355 2020-01-15 15:37:00
City (LCY) - Belfast City (BHD) BE1352 2020-01-15 13:41:00
Belfast City (BHD) - City (LCY) BE1351 2020-01-15 09:18:00
???? N/A 2020-01-15 07:29:00
Time Lat Lon Altitude Heading Speed Vertical Rate
2019-12-10 14:49:02 GMT 54.614491 -5.873222 650 33 6 -128
2019-12-10 14:48:58 GMT 54.614376 -5.873364 650 36 10 -128
2019-12-10 14:47:15 GMT 54.616669 -5.874273 650 215 61 -64
2019-12-10 14:47:07 GMT 54.619583 -5.870658 650 215 123 -320
2019-12-10 14:46:55 GMT 54.625793 -5.863287 850 215 133 -512
2019-12-10 14:46:46 GMT 54.630260 -5.857960 825 215 131 -640
2019-12-10 14:46:43 GMT 54.631760 -5.856117 850 217 133 -576
2019-12-10 14:46:35 GMT 54.636017 -5.850947 975 216 135 -768
2019-12-10 14:46:29 GMT 54.639153 -5.847140 1,025 217 128 -896
2019-12-10 14:46:24 GMT 54.641064 -5.844810 1,100 215 126 -1088
2019-12-10 14:46:14 GMT 54.645950 -5.839233 1,225 214 126 -704
2019-12-10 14:46:10 GMT 54.648376 -5.836406 1,300 216 129 -704
2019-12-10 14:46:05 GMT 54.650574 -5.833659 1,325 216 132 -512
2019-12-10 14:46:02 GMT 54.652283 -5.831659 1,375 214 132 -768
2019-12-10 14:45:59 GMT 54.653778 -5.829863 1,400 215 130 -768
2019-12-10 14:45:54 GMT 54.655865 -5.827498 1,450 215 129 -704
2019-12-10 14:45:49 GMT 54.658401 -5.824531 1,475 215 130 -768
2019-12-10 14:45:45 GMT 54.660892 -5.821505 1,575 216 132 -960
2019-12-10 14:45:39 GMT 54.663548 -5.818426 1,675 214 136 -704
2019-12-10 14:45:35 GMT 54.665874 -5.815679 1,700 216 136 -512
2019-12-10 14:45:31 GMT 54.667740 -5.813383 1,750 216 130 -704
2019-12-10 14:45:25 GMT 54.672775 -5.807405 1,850 215 133 -640
2019-12-10 14:45:21 GMT 54.674721 -5.805026 1,900 215 134 -640
2019-12-10 14:45:14 GMT 54.676208 -5.803205 1,925 216 129 -768
2019-12-10 14:45:09 GMT 54.678814 -5.800032 2,000 216 130 -832
2019-12-10 14:45:04 GMT 54.681004 -5.797452 2,075 215 133 -960
2019-12-10 14:44:59 GMT 54.683807 -5.794157 2,125 215 135 -832
2019-12-10 14:44:54 GMT 54.686325 -5.791087 2,200 216 139 -896
2019-12-10 14:44:50 GMT 54.691772 -5.784544 2,350 215 140 -768
2019-12-10 14:44:45 GMT 54.691772 -5.784544 2,325 215 139 -768
2019-12-10 14:44:41 GMT 54.693573 -5.782387 2,375 215 141 -768
2019-12-10 14:44:34 GMT 54.697109 -5.778226 2,450 215 147 -896
2019-12-10 14:44:30 GMT 54.699463 -5.775416 2,525 215 152 -1088
2019-12-10 14:44:27 GMT 54.703217 -5.770973 2,625 215 158 -832
2019-12-10 14:44:19 GMT 54.706100 -5.767418 2,675 215 160 -832
2019-12-10 14:44:14 GMT 54.709030 -5.763864 2,875 216 161 -960
2019-12-10 14:44:08 GMT 54.712646 -5.759502 2,800 216 159 -960
2019-12-10 14:44:04 GMT 54.715172 -5.756420 2,900 216 161 -960
2019-12-10 14:43:59 GMT 54.718231 -5.752635 2,975 216 161 -832
2019-12-10 14:43:54 GMT 54.721115 -5.749000 3,050 216 160 -896
2019-12-10 14:43:48 GMT 54.724960 -5.744234 3,100 217 159 -960
2019-12-10 14:43:42 GMT 54.728210 -5.740033 3,200 218 158 -1024
2019-12-10 14:43:38 GMT 54.730396 -5.737027 3,300 219 155 -768
2019-12-10 14:43:31 GMT 54.734119 -5.731701 3,375 223 152 -896
2019-12-10 14:43:27 GMT 54.736725 -5.727706 3,450 223 152 -896
2019-12-10 14:43:22 GMT 54.738968 -5.723796 3,475 226 151 -768
2019-12-10 14:43:19 GMT 54.740730 -5.720381 3,525 232 148 -640
2019-12-10 14:43:14 GMT 54.742638 -5.715804 3,575 238 144 -256
2019-12-10 14:43:11 GMT 54.743408 -5.713698 3,575 239 144 -320
2019-12-10 14:43:08 GMT 54.744461 -5.710467 3,600 246 142 -448
2019-12-10 14:43:02 GMT 54.745895 -5.704817 3,625 249 143 -192
2019-12-10 14:42:58 GMT 54.746979 -5.699966 3,625 249 143 0
2019-12-10 14:42:52 GMT 54.748505 -5.693415 3,625 248 143 64
2019-12-10 14:42:46 GMT 54.751019 -5.682845 3,625 248 143 -64
2019-12-10 14:42:41 GMT 54.751019 -5.682845 3,625 249 143 64
2019-12-10 14:42:37 GMT 54.752289 -5.677589 3,625 249 143 64
2019-12-10 14:42:34 GMT 54.753021 -5.674438 3,625 249 143 64
2019-12-10 14:42:31 GMT 54.753624 -5.671775 3,625 249 143 64
2019-12-10 14:42:26 GMT 54.754787 -5.666698 3,625 249 143 -64
2019-12-10 14:42:22 GMT 54.756134 -5.660948 3,625 249 142 64
2019-12-10 14:42:16 GMT 54.757347 -5.655712 3,625 248 143 0
2019-12-10 14:42:11 GMT 54.759769 -5.645475 3,650 248 143 64
2019-12-10 14:42:07 GMT 54.759769 -5.645475 3,650 248 143 64
2019-12-10 14:42:04 GMT 54.760468 -5.642478 3,625 248 143 64
2019-12-10 14:42:01 GMT 54.761215 -5.639298 3,625 248 143 64
2019-12-10 14:41:55 GMT 54.762470 -5.633989 3,625 248 143 64
2019-12-10 14:41:51 GMT 54.763680 -5.628912 3,625 249 143 -64
2019-12-10 14:41:47 GMT 54.764660 -5.624667 3,625 249 143 -128
2019-12-10 14:41:43 GMT 54.765774 -5.619507 3,650 251 143 -192
2019-12-10 14:41:36 GMT 54.766983 -5.613206 3,650 257 141 192
2019-12-10 14:41:31 GMT 54.767532 -5.606986 3,625 271 138 192
2019-12-10 14:41:26 GMT 54.766983 -5.601816 3,625 290 137 -64
2019-12-10 14:41:22 GMT 54.765869 -5.597701 3,625 301 139 -64
2019-12-10 14:41:16 GMT 54.763866 -5.591958 3,625 302 140 0
2019-12-10 14:41:11 GMT 54.762192 -5.587297 3,625 302 140 64
2019-12-10 14:41:06 GMT 54.760620 -5.582993 3,625 303 141 64
2019-12-10 14:41:03 GMT 54.759659 -5.580328 3,625 303 141 0
2019-12-10 14:40:59 GMT 54.757965 -5.575723 3,625 302 140 -128
2019-12-10 14:40:56 GMT 54.757069 -5.573231 3,650 303 139 -128
2019-12-10 14:40:51 GMT 54.755219 -5.568130 3,625 303 139 192
2019-12-10 14:40:47 GMT 54.752972 -5.561912 3,625 303 140 0
2019-12-10 14:40:40 GMT 54.751785 -5.558678 3,625 303 140 -64
2019-12-10 14:40:36 GMT 54.750038 -5.553922 3,625 302 138 64
2019-12-10 14:40:31 GMT 54.748123 -5.548500 3,625 302 138 0
2019-12-10 14:40:25 GMT 54.744781 -5.539371 3,625 304 139 0
2019-12-10 14:40:20 GMT 54.743042 -5.534928 3,625 305 140 -192
2019-12-10 14:40:16 GMT 54.743042 -5.534928 3,650 307 141 -192
2019-12-10 14:40:10 GMT 54.740776 -5.530201 3,625 318 145 64
2019-12-10 14:40:05 GMT 54.738098 -5.526608 3,650 331 153 -64
2019-12-10 14:39:59 GMT 54.730583 -5.523709 3,650 0 175 64
2019-12-10 14:39:55 GMT 54.730583 -5.523709 3,650 3 179 64
2019-12-10 14:39:52 GMT 54.727432 -5.524427 3,625 14 189 128
2019-12-10 14:39:48 GMT 54.724091 -5.526285 3,625 23 199 -128
2019-12-10 14:39:40 GMT 54.717773 -5.532505 3,650 33 207 64
2019-12-10 14:39:37 GMT 54.715851 -5.534686 3,650 33 206 128
2019-12-10 14:39:34 GMT 54.713406 -5.537442 3,650 33 206 128
2019-12-10 14:39:29 GMT 54.709442 -5.541956 3,625 33 205 128
2019-12-10 14:39:26 GMT 54.707073 -5.544600 3,625 33 205 -64
2019-12-10 14:39:23 GMT 54.705002 -5.546965 3,625 33 205 -64
2019-12-10 14:39:20 GMT 54.702118 -5.550196 3,625 33 204 64
2019-12-10 14:39:17 GMT 54.699921 -5.552781 3,625 33 204 64
2019-12-10 14:39:14 GMT 54.697529 -5.555420 3,625 33 205 0
2019-12-10 14:39:09 GMT 54.693924 -5.559567 3,625 33 208 64
2019-12-10 14:39:06 GMT 54.691151 -5.562744 3,625 33 210 0
2019-12-10 14:39:02 GMT 54.685410 -5.569261 3,625 33 213 -64
2019-12-10 14:38:59 GMT 54.682434 -5.572573 3,625 32 219 0
2019-12-10 14:38:56 GMT 54.678444 -5.576893 3,625 32 220 0
2019-12-10 14:38:52 GMT 54.678444 -5.576893 3,625 32 223 64
2019-12-10 14:38:49 GMT 54.677170 -5.578308 3,625 32 225 0
2019-12-10 14:38:46 GMT 54.673836 -5.582053 3,625 32 228 -128
2019-12-10 14:38:43 GMT 54.671951 -5.584044 3,650 32 228 -128
2019-12-10 14:38:40 GMT 54.667603 -5.588891 3,650 32 230 0
2019-12-10 14:38:37 GMT 54.665451 -5.591314 3,650 32 233 -64
2019-12-10 14:38:34 GMT 54.662754 -5.594205 3,650 32 235 -64
2019-12-10 14:38:30 GMT 54.659958 -5.597292 3,650 31 238 -64
2019-12-10 14:38:27 GMT 54.656937 -5.600523 3,650 31 237 -64
2019-12-10 14:38:24 GMT 54.654236 -5.603443 3,650 31 237 -320
2019-12-10 14:38:21 GMT 54.646557 -5.611350 3,725 30 239 -1024
2019-12-10 14:38:16 GMT 54.646557 -5.611350 3,775 29 241 -1024
2019-12-10 14:38:13 GMT 54.643616 -5.614175 3,775 29 242 -896
2019-12-10 14:38:10 GMT 54.641064 -5.616594 3,825 28 245 -768
2019-12-10 14:38:06 GMT 54.636108 -5.621042 3,875 25 248 -384
2019-12-10 14:38:03 GMT 54.633427 -5.623252 3,875 22 249 -448
2019-12-10 14:37:59 GMT 54.628960 -5.625999 3,900 17 249 -448
2019-12-10 14:37:54 GMT 54.624119 -5.627580 3,950 7 247 -640
2019-12-10 14:37:51 GMT 54.620178 -5.627827 3,975 1 245 -832
2019-12-10 14:37:48 GMT 54.616810 -5.627330 4,025 355 242 -1152
2019-12-10 14:37:45 GMT 54.613129 -5.625889 4,125 346 238 -1728
2019-12-10 14:37:42 GMT 54.611160 -5.624677 4,225 339 236 -2048
2019-12-10 14:37:39 GMT 54.607544 -5.621688 4,350 332 233 -2176
2019-12-10 14:37:36 GMT 54.604202 -5.618295 4,650 328 233 -2112
2019-12-10 14:37:33 GMT 54.601318 -5.615064 4,600 329 234 -2112
2019-12-10 14:37:29 GMT 54.597977 -5.611590 4,725 329 234 -2112
2019-12-10 14:37:25 GMT 54.592072 -5.605451 4,850 330 233 -1920
2019-12-10 14:37:22 GMT 54.587952 -5.601412 5,050 331 234 -2368
2019-12-10 14:37:18 GMT 54.587952 -5.601412 5,100 331 235 -2304
2019-12-10 14:37:15 GMT 54.582451 -5.595953 5,300 331 237 -1600
2019-12-10 14:37:07 GMT 54.578262 -5.591875 5,450 331 240 -1472
2019-12-10 14:37:04 GMT 54.574863 -5.588462 5,525 331 240 -1536
2019-12-10 14:37:01 GMT 54.572536 -5.586132 5,550 330 240 -1472
2019-12-10 14:36:57 GMT 54.568085 -5.581701 5,675 330 241 -1216
2019-12-10 14:36:54 GMT 54.564972 -5.578550 5,725 330 242 -1216
2019-12-10 14:36:51 GMT 54.563049 -5.576612 5,750 330 242 -1216
2019-12-10 14:36:48 GMT 54.559158 -5.572653 5,825 330 244 -1152
2019-12-10 14:36:45 GMT 54.556244 -5.569735 5,900 330 245 -1088
2019-12-10 14:36:42 GMT 54.548702 -5.562245 5,975 331 249 -1088
2019-12-10 14:36:37 GMT 54.548702 -5.562245 6,025 330 249 -1024
2019-12-10 14:36:34 GMT 54.545116 -5.558749 6,100 330 251 -1024
2019-12-10 14:36:31 GMT 54.542744 -5.556419 6,125 330 252 -960
2019-12-10 14:36:28 GMT 54.539246 -5.552862 6,175 330 254 -896
2019-12-10 14:36:24 GMT 54.535263 -5.548742 6,225 329 255 -832
2019-12-10 14:36:21 GMT 54.532177 -5.545599 6,275 329 256 -960
2019-12-10 14:36:18 GMT 54.524780 -5.537675 6,325 328 258 -832
2019-12-10 14:36:14 GMT 54.524780 -5.537675 6,375 328 259 -896
2019-12-10 14:36:09 GMT 54.520447 -5.532865 6,425 327 262 -896
2019-12-10 14:36:06 GMT 54.514393 -5.525873 6,500 326 262 -1088
2019-12-10 14:36:03 GMT 54.514393 -5.525873 6,550 325 263 -1152
2019-12-10 14:35:58 GMT 54.509125 -5.519095 6,625 321 264 -1088
2019-12-10 14:35:52 GMT 54.501823 -5.506398 6,775 309 260 -1088
2019-12-10 14:35:49 GMT 54.501823 -5.506398 6,800 306 259 -1152
2019-12-10 14:35:45 GMT 54.497635 -5.494860 6,900 300 259 -1088
2019-12-10 14:35:39 GMT 54.495529 -5.488398 6,950 300 261 -1152
2019-12-10 14:35:36 GMT 54.493725 -5.483093 7,000 300 261 -1152
2019-12-10 14:35:33 GMT 54.491768 -5.477267 7,100 301 263 -1344
2019-12-10 14:35:29 GMT 54.489300 -5.470109 7,200 302 262 -1664
2019-12-10 14:35:26 GMT 54.487473 -5.464810 7,275 302 262 -1664
2019-12-10 14:35:23 GMT 54.485184 -5.458509 7,375 302 262 -1600
2019-12-10 14:35:19 GMT 54.482849 -5.451965 7,425 302 262 -1536
2019-12-10 14:35:15 GMT 54.478729 -5.440737 7,700 303 261 -1664
2019-12-10 14:35:12 GMT 54.478729 -5.440737 7,650 303 261 -1600
2019-12-10 14:35:08 GMT 54.475197 -5.431241 7,725 303 261 -1664
2019-12-10 14:35:03 GMT 54.472870 -5.425165 7,850 304 260 -1536
2019-12-10 14:35:00 GMT 54.470306 -5.418441 7,975 304 260 -1536
2019-12-10 14:34:57 GMT 54.468750 -5.414483 8,050 304 260 -1536
2019-12-10 14:34:53 GMT 54.465885 -5.407104 8,175 305 260 -1600
2019-12-10 14:34:50 GMT 54.463978 -5.402277 8,225 305 260 -1600
2019-12-10 14:34:47 GMT 54.459274 -5.390490 8,350 305 260 -1600
2019-12-10 14:34:43 GMT 54.459274 -5.390490 8,425 305 260 -1600
2019-12-10 14:34:40 GMT 54.457226 -5.385382 8,475 305 260 -1536
2019-12-10 14:34:37 GMT 54.455273 -5.380554 8,550 305 259 -1344
2019-12-10 14:34:33 GMT 54.452087 -5.372799 8,650 306 260 -1344
2019-12-10 14:34:30 GMT 54.448196 -5.363267 8,725 306 261 -1280
2019-12-10 14:34:27 GMT 54.448196 -5.363267 8,775 306 261 -1216
2019-12-10 14:34:24 GMT 54.446102 -5.358249 8,825 306 261 -1216
2019-12-10 14:34:20 GMT 54.443356 -5.351590 8,900 306 262 -1216
2019-12-10 14:34:17 GMT 54.439350 -5.341936 9,050 306 262 -1536
2019-12-10 14:34:14 GMT 54.437256 -5.336851 9,150 306 262 -1600
2019-12-10 14:34:11 GMT 54.437256 -5.336851 9,250 306 262 -1600
2019-12-10 14:34:08 GMT 54.434883 -5.331116 9,275 306 261 -1536
2019-12-10 14:34:05 GMT 54.432770 -5.326026 9,300 306 261 -1408
2019-12-10 14:34:02 GMT 54.430801 -5.321260 10,275 305 261 -1280
2019-12-10 14:33:59 GMT 54.426682 -5.311082 9,475 305 260 -1344
2019-12-10 14:33:52 GMT 54.424164 -5.304942 9,525 305 261 -1280
2019-12-10 14:33:49 GMT 54.421967 -5.299530 9,600 305 261 -1280
2019-12-10 14:33:46 GMT 54.420044 -5.294764 9,725 305 262 -1152
2019-12-10 14:33:43 GMT 54.416912 -5.287004 9,775 305 263 -960
2019-12-10 14:33:38 GMT 54.413841 -5.279430 9,825 305 265 -896
2019-12-10 14:33:34 GMT 54.410843 -5.272064 9,900 305 268 -832
2019-12-10 14:33:31 GMT 54.408718 -5.266862 9,925 305 268 -896
2019-12-10 14:33:25 GMT 54.405167 -5.258089 10,000 305 271 -704
2019-12-10 14:33:22 GMT 54.403042 -5.252963 10,050 305 272 -704
2019-12-10 14:33:19 GMT 54.400543 -5.246779 10,250 305 277 -1088
2019-12-10 14:33:16 GMT 54.398712 -5.242226 10,125 305 275 -960
2019-12-10 14:33:12 GMT 54.395370 -5.233854 10,200 305 276 -1088
2019-12-10 14:33:09 GMT 54.393215 -5.228410 10,225 305 276 -1024
2019-12-10 14:33:06 GMT 54.391495 -5.224082 10,275 305 277 -1088
2019-12-10 14:33:03 GMT 54.389053 -5.217940 10,350 304 277 -1152
2019-12-10 14:33:00 GMT 54.383766 -5.204357 10,425 304 278 -960
2019-12-10 14:32:56 GMT 54.383766 -5.204357 10,475 304 280 -832
2019-12-10 14:32:53 GMT 54.381813 -5.199280 10,525 303 283 -448
2019-12-10 14:32:50 GMT 54.379623 -5.193544 10,550 303 290 -448
2019-12-10 14:32:47 GMT 54.377655 -5.188293 10,525 303 285 -256
2019-12-10 14:32:43 GMT 54.371979 -5.172945 10,575 303 288 -320
2019-12-10 14:32:39 GMT 54.371979 -5.172945 10,575 303 290 -448
2019-12-10 14:32:36 GMT 54.369965 -5.167452 10,600 302 293 0
2019-12-10 14:32:31 GMT 54.366257 -5.157273 10,600 302 294 -64
2019-12-10 14:32:28 GMT 54.364403 -5.152172 10,600 302 296 -64
2019-12-10 14:32:25 GMT 54.362000 -5.145560 10,600 302 298 -64
2019-12-10 14:32:22 GMT 54.359421 -5.138522 10,600 302 299 64
2019-12-10 14:32:17 GMT 54.355820 -5.128596 10,600 302 303 0
2019-12-10 14:32:14 GMT 54.351879 -5.117465 10,600 302 304 -64
2019-12-10 14:32:11 GMT 54.351879 -5.117465 10,600 302 305 -192
2019-12-10 14:32:07 GMT 54.348900 -5.109142 10,600 302 306 -384
2019-12-10 14:32:04 GMT 54.346024 -5.101211 10,675 302 309 -768
2019-12-10 14:32:01 GMT 54.344151 -5.095825 10,675 302 310 -832
2019-12-10 14:31:58 GMT 54.342499 -5.091194 10,725 302 309 -1152
2019-12-10 14:31:55 GMT 54.339962 -5.083923 10,800 302 311 -960
2019-12-10 14:31:52 GMT 54.336983 -5.075517 10,900 302 311 -1088
2019-12-10 14:31:48 GMT 54.334049 -5.067111 10,950 302 311 -1280
2019-12-10 14:31:43 GMT 54.330978 -5.058705 11,050 303 310 -1664
2019-12-10 14:31:40 GMT 54.328556 -5.052046 11,175 303 310 -1728
2019-12-10 14:31:37 GMT 54.326416 -5.046220 11,225 303 310 -1728
2019-12-10 14:31:34 GMT 54.323948 -5.039645 11,300 303 309 -1472
2019-12-10 14:31:31 GMT 54.321075 -5.031819 11,375 303 309 -1280
2019-12-10 14:31:28 GMT 54.316963 -5.020585 11,450 302 309 -1216
2019-12-10 14:31:25 GMT 54.316963 -5.020585 11,500 302 309 -1088
2019-12-10 14:31:21 GMT 54.314163 -5.012755 11,550 302 309 -1024
2019-12-10 14:31:18 GMT 54.312012 -5.006777 11,600 307 307 -2368
2019-12-10 14:31:15 GMT 54.309750 -5.000527 11,700 302 310 -1216
2019-12-10 14:31:12 GMT 54.307800 -4.995144 11,700 303 309 -1856
2019-12-10 14:31:09 GMT 54.303185 -4.982549 11,975 303 306 -2432
2019-12-10 14:31:03 GMT 54.300842 -4.976241 12,000 303 307 -2432
2019-12-10 14:31:00 GMT 54.298370 -4.969698 12,300 305 306 -2560
2019-12-10 14:30:56 GMT 54.294712 -4.960494 12,425 306 307 -2560
2019-12-10 14:30:53 GMT 54.292805 -4.955916 12,525 306 306 -2496
2019-12-10 14:30:50 GMT 54.290314 -4.949987 12,600 306 307 -2368
2019-12-10 14:30:47 GMT 54.285400 -4.938521 12,850 307 308 -2304
2019-12-10 14:30:41 GMT 54.282486 -4.931892 12,975 308 309 -1920
2019-12-10 14:30:35 GMT 54.277489 -4.920663 13,150 308 309 -2048
2019-12-10 14:30:32 GMT 54.274933 -4.914969 13,225 308 309 -2048
2019-12-10 14:30:29 GMT 54.271866 -4.907985 13,350 307 310 -1856
2019-12-10 14:30:26 GMT 54.269760 -4.903277 13,400 307 310 -1856
2019-12-10 14:30:22 GMT 54.266327 -4.895194 13,525 306 311 -1344
2019-12-10 14:30:18 GMT 54.263149 -4.887624 13,625 306 313 -1536
2019-12-10 14:30:15 GMT 54.260448 -4.881242 13,650 306 314 -1536
2019-12-10 14:30:12 GMT 54.258316 -4.876125 13,800 306 316 -1792
2019-12-10 14:30:09 GMT 54.252457 -4.862313 14,000 307 319 -2112
2019-12-10 14:30:03 GMT 54.250114 -4.856846 14,075 307 319 -2176
2019-12-10 14:30:00 GMT 54.247833 -4.851562 14,125 306 320 -2112
2019-12-10 14:29:57 GMT 54.244034 -4.842538 14,350 306 323 -1536
2019-12-10 14:29:53 GMT 54.241409 -4.836327 14,425 307 325 -1280
2019-12-10 14:29:50 GMT 54.238724 -4.830061 14,425 307 328 -1152
2019-12-10 14:29:47 GMT 54.236336 -4.824694 14,500 308 330 -1536
2019-12-10 14:29:44 GMT 54.233551 -4.818525 14,550 309 333 -1536
2019-12-10 14:29:41 GMT 54.230610 -4.812335 14,675 310 335 -1664
2019-12-10 14:29:37 GMT 54.225586 -4.802124 14,875 312 341 -1728
2019-12-10 14:29:34 GMT 54.218811 -4.789333 14,950 313 344 -1664
2019-12-10 14:29:30 GMT 54.218811 -4.789333 15,000 314 345 -1728
2019-12-10 14:29:26 GMT 54.214462 -4.781328 15,125 314 345 -1728
2019-12-10 14:29:22 GMT 54.209846 -4.772994 15,275 314 348 -1728
2019-12-10 14:29:19 GMT 54.205425 -4.764997 15,300 314 349 -1664
2019-12-10 14:29:16 GMT 54.203522 -4.761632 15,400 314 350 -1664
2019-12-10 14:29:13 GMT 54.200073 -4.755464 15,475 314 350 -1728
2019-12-10 14:29:08 GMT 54.194046 -4.744603 15,625 314 350 -1664
2019-12-10 14:29:03 GMT 54.189560 -4.736677 15,700 314 350 -1728
2019-12-10 14:28:59 GMT 54.184429 -4.727433 15,875 314 351 -1728
2019-12-10 14:28:56 GMT 54.180847 -4.721051 15,950 314 351 -1728
2019-12-10 14:28:53 GMT 54.177681 -4.715477 15,975 314 351 -1728
2019-12-10 14:28:50 GMT 54.174316 -4.709525 16,150 315 352 -1664
2019-12-10 14:28:47 GMT 54.165901 -4.694797 16,275 315 352 -1728
2019-12-10 14:28:43 GMT 54.165901 -4.694797 16,525 314 353 -1664
2019-12-10 14:28:40 GMT 54.163055 -4.689828 16,400 315 352 -1728
2019-12-10 14:28:37 GMT 54.159302 -4.683236 16,475 314 353 -1664
2019-12-10 14:28:33 GMT 54.151424 -4.669109 16,650 314 355 -1792
2019-12-10 14:28:30 GMT 54.151424 -4.669109 16,725 314 355 -1792
2019-12-10 14:28:27 GMT 54.144058 -4.655849 16,975 314 355 -1792
2019-12-10 14:28:23 GMT 54.144058 -4.655849 16,900 314 356 -1728
2019-12-10 14:28:20 GMT 54.138905 -4.646409 17,000 314 357 -1728
2019-12-10 14:28:16 GMT 54.135040 -4.639448 17,125 314 358 -1792
2019-12-10 14:28:13 GMT 54.132202 -4.634347 17,175 314 360 -1728
2019-12-10 14:28:09 GMT 54.127869 -4.626456 17,275 314 362 -1728
2019-12-10 14:28:06 GMT 54.121674 -4.615278 17,475 313 365 -1728
2019-12-10 14:28:00 GMT 54.117302 -4.607311 17,575 313 365 -1728
2019-12-10 14:27:57 GMT 54.113846 -4.600996 17,650 313 365 -1728
2019-12-10 14:27:54 GMT 54.110039 -4.593982 17,750 313 365 -1728
2019-12-10 14:27:51 GMT 54.106613 -4.587577 17,825 313 367 -1152
2019-12-10 14:27:48 GMT 54.103317 -4.581456 17,875 313 366 -1088
2019-12-10 14:27:45 GMT 54.100822 -4.576856 17,950 313 368 -960
2019-12-10 14:27:42 GMT 54.097145 -4.569989 17,950 313 368 -1088
2019-12-10 14:27:39 GMT 54.094025 -4.564012 18,000 313 368 -640
2019-12-10 14:27:36 GMT 54.090088 -4.556658 18,000 312 368 0
2019-12-10 14:27:32 GMT 54.080853 -4.539131 18,000 312 368 -64
2019-12-10 14:27:28 GMT 54.080853 -4.539131 18,000 312 370 -64
2019-12-10 14:27:25 GMT 54.078011 -4.533718 18,000 312 370 64
2019-12-10 14:27:22 GMT 54.074940 -4.527821 18,000 312 371 128
2019-12-10 14:27:18 GMT 54.065208 -4.509403 18,000 312 371 -128
2019-12-10 14:27:15 GMT 54.065208 -4.509403 18,000 313 371 0
2019-12-10 14:27:12 GMT 54.058548 -4.496861 18,000 313 371 64
2019-12-10 14:27:09 GMT 54.058548 -4.496861 18,000 313 371 64
2019-12-10 14:27:06 GMT 54.055107 -4.490338 18,000 313 370 64
2019-12-10 14:27:03 GMT 54.049103 -4.479191 18,000 313 370 0
2019-12-10 14:27:00 GMT 54.049103 -4.479191 18,000 313 370 -64
2019-12-10 14:26:57 GMT 54.045639 -4.472770 18,000 313 369 64
2019-12-10 14:26:54 GMT 54.042168 -4.466346 18,000 313 368 0
2019-12-10 14:26:51 GMT 54.039047 -4.460530 18,000 313 367 -64
2019-12-10 14:26:48 GMT 54.034904 -4.452937 18,000 313 367 -64
2019-12-10 14:26:45 GMT 54.031403 -4.446638 18,000 313 367 -64
2019-12-10 14:26:42 GMT 54.028389 -4.441062 18,000 314 366 64
2019-12-10 14:26:39 GMT 54.025173 -4.435245 18,000 314 366 0
2019-12-10 14:26:36 GMT 54.021698 -4.428981 18,000 314 365 -64
2019-12-10 14:26:33 GMT 54.017075 -4.420506 18,000 314 365 -64
2019-12-10 14:26:30 GMT 54.014282 -4.415405 18,000 314 365 -64
2019-12-10 14:26:27 GMT 54.010574 -4.408735 18,000 313 363 -64
2019-12-10 14:26:24 GMT 54.003708 -4.396258 18,000 313 362 64
2019-12-10 14:26:21 GMT 54.003708 -4.396258 18,000 313 362 64
2019-12-10 14:26:18 GMT 53.999897 -4.389280 18,000 314 361 0
2019-12-10 14:26:14 GMT 53.995972 -4.382132 18,000 314 362 -64
2019-12-10 14:26:11 GMT 53.987934 -4.367712 18,175 314 364 -512
2019-12-10 14:26:08 GMT 53.987934 -4.367712 18,000 314 363 -256
2019-12-10 14:26:05 GMT 53.984528 -4.361494 18,025 314 364 -512
2019-12-10 14:26:02 GMT 53.981277 -4.355608 18,050 314 364 -768
2019-12-10 14:25:59 GMT 53.978989 -4.351449 18,300 314 365 -1472
2019-12-10 14:25:56 GMT 53.975597 -4.345254 18,250 313 365 -1664
2019-12-10 14:25:53 GMT 53.972580 -4.339757 18,250 313 365 -1664
2019-12-10 14:25:50 GMT 53.967957 -4.331281 18,350 313 367 -1664
2019-12-10 14:25:46 GMT 53.964470 -4.324978 18,400 313 367 -1664
2019-12-10 14:25:42 GMT 53.958710 -4.314488 18,600 313 368 -1664
2019-12-10 14:25:39 GMT 53.955765 -4.309145 18,675 313 369 -1664
2019-12-10 14:25:36 GMT 53.952759 -4.303659 18,725 313 370 -1664
2019-12-10 14:25:33 GMT 53.947807 -4.294523 18,825 313 369 -1664
2019-12-10 14:25:30 GMT 53.944794 -4.288984 18,900 313 370 -1664
2019-12-10 14:25:27 GMT 53.941681 -4.283177 18,975 313 370 -1664
2019-12-10 14:25:24 GMT 53.937656 -4.275701 19,050 313 372 -1664
2019-12-10 14:25:21 GMT 53.934631 -4.270072 19,175 313 373 -1728
2019-12-10 14:25:17 GMT 53.929596 -4.260733 19,225 313 375 -1664
2019-12-10 14:25:14 GMT 53.926067 -4.254213 19,350 313 376 -1728
2019-12-10 14:25:10 GMT 53.922501 -4.247550 19,600 313 377 -1664
2019-12-10 14:25:07 GMT 53.919205 -4.241429 19,675 313 379 -1664
2019-12-10 14:25:04 GMT 53.913986 -4.231934 19,675 313 379 -1664
2019-12-10 14:25:00 GMT 53.905792 -4.217337 19,775 315 383 -1728
2019-12-10 14:24:57 GMT 53.905792 -4.217337 19,850 315 384 -1728
2019-12-10 14:24:54 GMT 53.902679 -4.212080 19,900 316 385 -1728
2019-12-10 14:24:51 GMT 53.898193 -4.204546 20,025 315 384 -1728
2019-12-10 14:24:48 GMT 53.895126 -4.199289 20,200 307 377 -1600
2019-12-10 14:24:45 GMT 53.891430 -4.192819 20,450 311 381 -1728
2019-12-10 14:24:42 GMT 53.887802 -4.186262 20,250 313 383 -1664
2019-12-10 14:24:39 GMT 53.879288 -4.170175 20,350 312 382 -1664
2019-12-10 14:24:36 GMT 53.876766 -4.165192 20,475 311 381 -1728
2019-12-10 14:24:33 GMT 53.876766 -4.165192 20,575 310 380 -1664
2019-12-10 14:24:29 GMT 53.871597 -4.154637 20,600 310 380 -1664
2019-12-10 14:24:26 GMT 53.868340 -4.147662 20,900 307 377 -1600
2019-12-10 14:24:22 GMT 53.864059 -4.138291 20,800 307 378 -1664
2019-12-10 14:24:19 GMT 53.862213 -4.133998 20,900 307 377 -1600
2019-12-10 14:24:16 GMT 53.858917 -4.126386 21,000 305 375 -192
2019-12-10 14:24:13 GMT 53.855347 -4.117754 21,000 305 375 -320
2019-12-10 14:24:10 GMT 53.852966 -4.111947 21,000 305 374 -64
2019-12-10 14:24:07 GMT 53.850418 -4.105736 21,000 305 373 -64
2019-12-10 14:24:04 GMT 53.846283 -4.095625 21,000 305 373 -64
2019-12-10 14:24:01 GMT 53.843994 -4.090053 21,000 305 373 -64
2019-12-10 14:23:58 GMT 53.841156 -4.083147 21,000 305 373 64
2019-12-10 14:23:55 GMT 53.837723 -4.074829 21,000 305 372 64
2019-12-10 14:23:52 GMT 53.835251 -4.068787 21,000 305 372 64
2019-12-10 14:23:49 GMT 53.831516 -4.059771 21,000 305 372 -64
2019-12-10 14:23:45 GMT 53.828522 -4.052543 21,000 305 372 0
2019-12-10 14:23:42 GMT 53.825279 -4.044665 21,000 305 372 -64
2019-12-10 14:23:39 GMT 53.821838 -4.036298 21,000 305 372 0
2019-12-10 14:23:36 GMT 53.820065 -4.031982 21,000 305 372 64
2019-12-10 14:23:33 GMT 53.815979 -4.022173 21,000 305 373 64
2019-12-10 14:23:29 GMT 53.809204 -4.005772 21,000 305 372 -64
2019-12-10 14:23:26 GMT 53.809204 -4.005772 21,000 305 372 -64
2019-12-10 14:23:20 GMT 53.803665 -3.992432 21,000 305 372 64
2019-12-10 14:23:14 GMT 53.795208 -3.971881 21,000 305 372 0
2019-12-10 14:23:11 GMT 53.791077 -3.961905 21,000 305 372 -128
2019-12-10 14:23:08 GMT 53.791077 -3.961905 21,000 305 372 -64
2019-12-10 14:23:05 GMT 53.788921 -3.956694 21,000 305 372 0
2019-12-10 14:23:02 GMT 53.785172 -3.947623 21,000 305 372 64
2019-12-10 14:22:59 GMT 53.782639 -3.941426 21,000 305 372 64
2019-12-10 14:22:56 GMT 53.780682 -3.936741 21,000 306 371 -64
2019-12-10 14:22:53 GMT 53.775742 -3.924866 21,000 305 370 -64
2019-12-10 14:22:50 GMT 53.773819 -3.920079 21,000 305 370 -64
2019-12-10 14:22:47 GMT 53.771118 -3.913644 21,000 305 370 0
2019-12-10 14:22:44 GMT 53.768112 -3.906367 21,000 305 369 64
2019-12-10 14:22:41 GMT 53.765579 -3.900225 21,000 305 369 64
2019-12-10 14:22:38 GMT 53.762249 -3.892230 21,000 305 369 64
2019-12-10 14:22:35 GMT 53.759872 -3.886575 21,000 305 369 0
2019-12-10 14:22:32 GMT 53.756561 -3.878566 21,000 305 369 0
2019-12-10 14:22:29 GMT 53.753635 -3.871469 21,000 305 369 64
2019-12-10 14:22:25 GMT 53.750381 -3.863656 21,000 305 369 -64
2019-12-10 14:22:22 GMT 53.745770 -3.852566 21,000 306 370 -64
2019-12-10 14:22:19 GMT 53.743698 -3.847569 21,000 306 370 -64
2019-12-10 14:22:16 GMT 53.740448 -3.839879 21,000 306 370 64
2019-12-10 14:22:12 GMT 53.735947 -3.828978 21,000 306 371 64
2019-12-10 14:22:06 GMT 53.731018 -3.817200 21,000 306 371 0
2019-12-10 14:22:03 GMT 53.727661 -3.809105 21,000 306 371 0
2019-12-10 14:22:00 GMT 53.724121 -3.800623 21,000 306 371 0
2019-12-10 14:21:56 GMT 53.721329 -3.793999 21,000 306 371 0
2019-12-10 14:21:53 GMT 53.718384 -3.786830 21,000 306 371 64
2019-12-10 14:21:50 GMT 53.715591 -3.780239 21,000 306 371 64
2019-12-10 14:21:47 GMT 53.712021 -3.771685 21,000 306 371 64
2019-12-10 14:21:44 GMT 53.709274 -3.765093 21,000 306 371 -64
2019-12-10 14:21:41 GMT 53.706482 -3.758501 21,000 299 360 -64
2019-12-10 14:21:38 GMT 53.703499 -3.751346 21,000 306 371 -64
2019-12-10 14:21:35 GMT 53.700531 -3.744298 21,000 306 371 64
2019-12-10 14:21:31 GMT 53.696423 -3.734382 21,000 306 370 0
2019-12-10 14:21:28 GMT 53.693481 -3.727426 21,000 306 370 -64
2019-12-10 14:21:25 GMT 53.690510 -3.720245 21,000 306 370 -64
2019-12-10 14:21:22 GMT 53.687763 -3.713702 21,000 306 370 -64
2019-12-10 14:21:19 GMT 53.684280 -3.705453 21,000 306 370 64
2019-12-10 14:21:15 GMT 53.680969 -3.697465 21,000 306 370 0
2019-12-10 14:21:12 GMT 53.676910 -3.687875 21,000 306 369 -64
2019-12-10 14:21:06 GMT 53.670914 -3.673514 21,000 306 368 0
2019-12-10 14:21:03 GMT 53.667023 -3.664176 21,000 305 367 0
2019-12-10 14:21:00 GMT 53.665192 -3.659703 21,000 304 366 64
2019-12-10 14:20:57 GMT 53.662949 -3.653974 21,000 304 365 0
2019-12-10 14:20:51 GMT 53.657089 -3.638436 21,000 301 362 0
2019-12-10 14:20:48 GMT 53.654617 -3.631688 21,000 301 362 64
2019-12-10 14:20:45 GMT 53.652431 -3.625407 21,000 300 361 64
2019-12-10 14:20:42 GMT 53.649902 -3.618112 21,000 298 358 0
2019-12-10 14:20:39 GMT 53.647263 -3.609978 21,000 299 359 -64
2019-12-10 14:20:36 GMT 53.645309 -3.603839 21,000 298 359 0
2019-12-10 14:20:33 GMT 53.643036 -3.596453 21,000 297 357 -64
2019-12-10 14:20:30 GMT 53.641251 -3.590489 21,000 296 357 0
2019-12-10 14:20:27 GMT 53.638412 -3.580758 21,000 296 356 0
2019-12-10 14:20:24 GMT 53.636326 -3.573222 21,000 295 355 0
2019-12-10 14:20:21 GMT 53.634090 -3.564902 21,000 295 355 0
2019-12-10 14:20:18 GMT 53.632740 -3.560055 21,000 295 355 0
2019-12-10 14:20:15 GMT 53.630402 -3.551331 21,000 295 355 0
2019-12-10 14:20:12 GMT 53.628319 -3.543818 21,000 295 355 -64
2019-12-10 14:20:09 GMT 53.625572 -3.533801 21,000 295 355 -64
2019-12-10 14:20:06 GMT 53.623810 -3.527239 21,000 295 355 0
2019-12-10 14:20:03 GMT 53.621754 -3.519745 21,000 295 355 0
2019-12-10 14:20:00 GMT 53.619965 -3.513192 21,000 295 354 -64
2019-12-10 14:19:57 GMT 53.617985 -3.505931 21,000 295 354 -64
2019-12-10 14:19:54 GMT 53.615189 -3.495753 21,000 295 354 0
2019-12-10 14:19:51 GMT 53.613838 -3.490744 21,000 295 354 128
2019-12-10 14:19:48 GMT 53.609116 -3.473485 21,000 295 353 64
2019-12-10 14:19:45 GMT 53.607697 -3.468227 21,000 295 353 0
2019-12-10 14:19:42 GMT 53.605366 -3.459805 21,000 295 354 -64
2019-12-10 14:19:36 GMT 53.603302 -3.452297 21,000 295 354 -64
2019-12-10 14:19:33 GMT 53.601040 -3.444052 21,000 295 354 -64
2019-12-10 14:19:30 GMT 53.599316 -3.437832 21,000 295 354 64
2019-12-10 14:19:27 GMT 53.597076 -3.429461 21,000 295 354 128
2019-12-10 14:19:24 GMT 53.595062 -3.422241 21,000 295 354 128
2019-12-10 14:19:21 GMT 53.593266 -3.415779 21,000 295 354 64
2019-12-10 14:19:18 GMT 53.591076 -3.407781 21,000 295 354 -64
2019-12-10 14:19:15 GMT 53.589294 -3.401289 21,000 295 354 -64
2019-12-10 14:19:12 GMT 53.586823 -3.392264 21,000 295 355 64
2019-12-10 14:19:09 GMT 53.584900 -3.385202 21,000 295 356 64
2019-12-10 14:19:06 GMT 53.582275 -3.375711 21,000 295 357 -64
2019-12-10 14:19:03 GMT 53.580879 -3.370702 21,000 295 357 -64
2019-12-10 14:19:00 GMT 53.579250 -3.364886 21,000 295 357 0
2019-12-10 14:18:57 GMT 53.576180 -3.353577 21,000 295 357 0
2019-12-10 14:18:53 GMT 53.573387 -3.343560 21,000 295 357 -64
2019-12-10 14:18:47 GMT 53.567459 -3.321873 21,000 295 356 64
2019-12-10 14:18:44 GMT 53.567459 -3.321873 21,000 295 356 64
2019-12-10 14:18:41 GMT 53.565426 -3.314559 21,000 295 355 64
2019-12-10 14:18:38 GMT 53.563293 -3.306885 21,000 295 354 64
2019-12-10 14:18:34 GMT 53.560444 -3.296545 21,000 295 353 -64
2019-12-10 14:18:31 GMT 53.556702 -3.282950 21,000 295 353 -64
2019-12-10 14:18:25 GMT 53.554394 -3.274491 21,000 295 353 0
2019-12-10 14:18:22 GMT 53.552765 -3.268594 21,000 295 353 0
2019-12-10 14:18:19 GMT 53.547504 -3.249610 21,000 295 352 -64
2019-12-10 14:18:16 GMT 53.547504 -3.249610 21,000 295 352 -64
2019-12-10 14:18:13 GMT 53.546154 -3.244683 21,000 295 352 64
2019-12-10 14:18:10 GMT 53.543686 -3.235716 21,000 295 353 -64
2019-12-10 14:18:07 GMT 53.542290 -3.230788 21,000 295 352 0
2019-12-10 14:18:04 GMT 53.539948 -3.222290 21,000 295 353 -64
2019-12-10 14:18:01 GMT 53.537914 -3.214874 21,000 295 353 -128
2019-12-10 14:17:58 GMT 53.535679 -3.206877 21,000 296 354 128
2019-12-10 14:17:55 GMT 53.533772 -3.199930 21,000 296 354 128
2019-12-10 14:17:52 GMT 53.531387 -3.191450 21,000 296 354 128
2019-12-10 14:17:49 GMT 53.529907 -3.186035 21,000 296 356 -64
2019-12-10 14:17:46 GMT 53.527542 -3.177482 21,000 295 355 -64
2019-12-10 14:17:42 GMT 53.524647 -3.166971 21,000 295 355 64
2019-12-10 14:17:39 GMT 53.523102 -3.161551 21,000 296 354 128
2019-12-10 14:17:36 GMT 53.521339 -3.155176 21,000 296 354 64
2019-12-10 14:17:33 GMT 53.518871 -3.146290 21,000 296 357 0
2019-12-10 14:17:30 GMT 53.517151 -3.140151 21,000 295 353 -64
2019-12-10 14:17:27 GMT 53.513992 -3.128749 21,000 295 352 128
2019-12-10 14:17:21 GMT 53.510696 -3.116821 21,000 295 352 64
2019-12-10 14:17:18 GMT 53.508499 -3.108895 21,000 295 352 64
2019-12-10 14:17:15 GMT 53.506851 -3.102931 21,000 296 354 64
2019-12-10 14:17:12 GMT 53.504654 -3.095084 21,000 296 354 -64
2019-12-10 14:17:09 GMT 53.502300 -3.086674 21,000 296 354 64
2019-12-10 14:17:06 GMT 53.499554 -3.076818 21,000 296 355 64
2019-12-10 14:17:03 GMT 53.498158 -3.071810 21,000 296 355 0
2019-12-10 14:17:00 GMT 53.496155 -3.064620 21,000 296 356 -192
2019-12-10 14:16:57 GMT 53.493805 -3.056240 21,000 296 356 -128
2019-12-10 14:16:54 GMT 53.491562 -3.048078 21,000 296 356 0
2019-12-10 14:16:51 GMT 53.489452 -3.040628 21,000 296 357 0
2019-12-10 14:16:48 GMT 53.487625 -3.034110 21,000 296 357 0
2019-12-10 14:16:45 GMT 53.485657 -3.027047 21,000 296 357 0
2019-12-10 14:16:42 GMT 53.480621 -3.008998 21,000 296 357 -64
2019-12-10 14:16:39 GMT 53.480621 -3.008998 21,000 295 357 -64
2019-12-10 14:16:36 GMT 53.479523 -3.004996 21,000 296 356 64
2019-12-10 14:16:33 GMT 53.477116 -2.996440 21,000 296 356 192
2019-12-10 14:16:30 GMT 53.474323 -2.986342 21,000 296 356 192
2019-12-10 14:16:27 GMT 53.472366 -2.979314 20,975 296 355 0
2019-12-10 14:16:24 GMT 53.470970 -2.974387 21,000 296 355 -64
2019-12-10 14:16:21 GMT 53.468307 -2.964896 21,000 296 355 -64
2019-12-10 14:16:18 GMT 53.466888 -2.959874 21,000 296 355 -64
2019-12-10 14:16:15 GMT 53.464592 -2.951687 21,000 296 356 64
2019-12-10 14:16:12 GMT 53.459751 -2.934319 21,000 296 356 0
2019-12-10 14:16:09 GMT 53.459751 -2.934319 21,000 296 356 -64
2019-12-10 14:16:06 GMT 53.456223 -2.921814 21,000 296 357 -64
2019-12-10 14:16:03 GMT 53.456223 -2.921814 21,000 296 358 0
2019-12-10 14:16:00 GMT 53.454254 -2.914908 21,000 296 357 64
2019-12-10 14:15:57 GMT 53.451141 -2.903843 21,000 296 358 64
2019-12-10 14:15:54 GMT 53.449768 -2.898821 21,000 296 358 64
2019-12-10 14:15:51 GMT 53.447929 -2.892232 21,000 296 358 0
2019-12-10 14:15:48 GMT 53.445236 -2.882734 21,000 296 358 0
2019-12-10 14:15:44 GMT 53.442169 -2.871905 21,000 296 356 -64
2019-12-10 14:15:41 GMT 53.440750 -2.866882 21,000 296 357 -64
2019-12-10 14:15:38 GMT 53.438782 -2.859741 21,000 296 357 -64
2019-12-10 14:15:35 GMT 53.435989 -2.849775 21,000 296 356 -64
2019-12-10 14:15:32 GMT 53.434296 -2.843733 21,000 296 356 -64
2019-12-10 14:15:29 GMT 53.431866 -2.835200 21,000 296 356 128
2019-12-10 14:15:26 GMT 53.429489 -2.826782 21,000 296 356 128
2019-12-10 14:15:23 GMT 53.428070 -2.821760 21,000 296 356 -64
2019-12-10 14:15:20 GMT 53.426003 -2.814358 21,000 296 356 -64
2019-12-10 14:15:17 GMT 53.423489 -2.805391 21,000 296 355 -64
2019-12-10 14:15:14 GMT 53.422047 -2.800383 21,000 296 354 64
2019-12-10 14:15:11 GMT 53.419144 -2.789978 21,000 296 354 128
2019-12-10 14:15:08 GMT 53.415108 -2.775663 21,000 296 354 -64
2019-12-10 14:15:05 GMT 53.415108 -2.775663 21,000 296 354 64
2019-12-10 14:15:01 GMT 53.411987 -2.764677 21,000 296 354 64
2019-12-10 14:14:58 GMT 53.410217 -2.758196 21,000 296 354 0
2019-12-10 14:14:55 GMT 53.407654 -2.749250 21,000 296 354 -64
2019-12-10 14:14:52 GMT 53.406555 -2.745248 21,000 296 354 64
2019-12-10 14:14:49 GMT 53.404587 -2.738342 21,000 296 354 64
2019-12-10 14:14:46 GMT 53.402214 -2.729860 21,000 296 355 -64
2019-12-10 14:14:43 GMT 53.400146 -2.722648 21,000 296 355 0
2019-12-10 14:14:40 GMT 53.397511 -2.713219 21,000 296 353 0
2019-12-10 14:14:37 GMT 53.395386 -2.705854 21,000 296 353 -64
2019-12-10 14:14:34 GMT 53.393692 -2.699733 21,000 296 353 -64
2019-12-10 14:14:31 GMT 53.389206 -2.683881 21,000 296 354 64
2019-12-10 14:14:28 GMT 53.389206 -2.683881 21,000 296 354 64
2019-12-10 14:14:25 GMT 53.386963 -2.675956 21,000 296 355 64
2019-12-10 14:14:22 GMT 53.385456 -2.670728 21,000 296 355 64
2019-12-10 14:14:19 GMT 53.383301 -2.663086 21,000 296 355 64
2019-12-10 14:14:15 GMT 53.379959 -2.651393 21,000 296 356 64
2019-12-10 14:14:12 GMT 53.378220 -2.645194 21,000 296 357 -64
2019-12-10 14:14:09 GMT 53.376377 -2.638738 21,000 296 357 -192
2019-12-10 14:14:06 GMT 53.374374 -2.631791 21,000 296 357 -64
2019-12-10 14:14:03 GMT 53.371258 -2.620805 21,000 296 358 0
2019-12-10 14:14:00 GMT 53.369476 -2.614432 21,000 296 358 -64
2019-12-10 14:13:57 GMT 53.366974 -2.605779 21,000 296 358 64
2019-12-10 14:13:54 GMT 53.365578 -2.600771 21,000 296 358 128
2019-12-10 14:13:51 GMT 53.363708 -2.594264 21,000 296 358 128
2019-12-10 14:13:48 GMT 53.361572 -2.586796 21,000 296 358 64
2019-12-10 14:13:45 GMT 53.357010 -2.570720 21,000 296 359 0
2019-12-10 14:13:42 GMT 53.354324 -2.561227 21,000 296 359 0
2019-12-10 14:13:39 GMT 53.354324 -2.561227 21,000 296 360 -64
2019-12-10 14:13:36 GMT 53.350727 -2.548667 21,000 296 360 -64
2019-12-10 14:13:30 GMT 53.348099 -2.539411 21,000 296 360 -64
2019-12-10 14:13:27 GMT 53.343884 -2.524594 21,000 296 360 0
2019-12-10 14:13:24 GMT 53.343884 -2.524594 21,000 296 360 64
2019-12-10 14:13:21 GMT 53.341602 -2.516596 21,000 296 360 64
2019-12-10 14:13:18 GMT 53.340160 -2.511588 21,000 296 358 -64
2019-12-10 14:13:15 GMT 53.338028 -2.504098 21,000 296 358 64
2019-12-10 14:13:12 GMT 53.335464 -2.495074 21,000 296 359 0
2019-12-10 14:13:09 GMT 53.333176 -2.487069 21,000 296 358 -64
2019-12-10 14:13:06 GMT 53.330887 -2.479065 21,000 296 358 64
2019-12-10 14:13:03 GMT 53.326904 -2.465175 21,000 296 357 -64
2019-12-10 14:12:57 GMT 53.324471 -2.456656 21,000 296 357 -64
2019-12-10 14:12:54 GMT 53.322327 -2.449245 21,000 296 357 128
2019-12-10 14:12:51 GMT 53.320560 -2.442923 21,000 296 357 64
2019-12-10 14:12:48 GMT 53.318466 -2.435734 21,000 296 357 -64
2019-12-10 14:12:45 GMT 53.316101 -2.427429 21,000 296 356 0
2019-12-10 14:12:42 GMT 53.314232 -2.420789 21,000 296 356 64
2019-12-10 14:12:39 GMT 53.311798 -2.412362 21,000 296 356 0
2019-12-10 14:12:36 GMT 53.309280 -2.403416 21,000 296 356 0
2019-12-10 14:12:33 GMT 53.308270 -2.399947 21,000 296 356 0
2019-12-10 14:12:30 GMT 53.306038 -2.392111 21,000 296 356 0
2019-12-10 14:12:27 GMT 53.303604 -2.383562 21,000 296 356 -64
2019-12-10 14:12:24 GMT 53.300766 -2.373596 21,000 296 356 -64
2019-12-10 14:12:21 GMT 53.299072 -2.367711 21,000 296 356 0
2019-12-10 14:12:18 GMT 53.297192 -2.361253 21,000 296 355 0
2019-12-10 14:12:15 GMT 53.294540 -2.351780 21,000 296 355 -64
2019-12-10 14:12:12 GMT 53.290722 -2.338472 21,000 296 355 -64
2019-12-10 14:12:09 GMT 53.290722 -2.338472 21,000 296 355 64
2019-12-10 14:12:06 GMT 53.288486 -2.330636 21,000 296 352 128
2019-12-10 14:12:03 GMT 53.285973 -2.321750 21,000 296 354 64
2019-12-10 14:12:00 GMT 53.283367 -2.312784 21,000 296 354 0
2019-12-10 14:11:57 GMT 53.282410 -2.309326 21,000 296 354 -64
2019-12-10 14:11:54 GMT 53.280293 -2.301959 21,000 296 354 -64
2019-12-10 14:11:51 GMT 53.278473 -2.295593 21,000 296 354 -64
2019-12-10 14:11:48 GMT 53.275826 -2.286206 21,000 296 354 64
2019-12-10 14:11:42 GMT 53.271469 -2.270952 21,000 296 353 64
2019-12-10 14:11:39 GMT 53.269634 -2.264638 21,000 296 352 -64
2019-12-10 14:11:36 GMT 53.267303 -2.256356 21,000 296 352 -64
2019-12-10 14:11:33 GMT 53.265163 -2.248804 21,000 296 352 -64
2019-12-10 14:11:30 GMT 53.263138 -2.241603 21,000 296 352 -64
2019-12-10 14:11:27 GMT 53.261398 -2.235561 21,000 296 352 -64
2019-12-10 14:11:24 GMT 53.257187 -2.220808 21,000 296 352 128
2019-12-10 14:11:18 GMT 53.254829 -2.212453 21,000 296 352 128
2019-12-10 14:11:15 GMT 53.252747 -2.205113 21,000 296 352 0
2019-12-10 14:11:09 GMT 53.248535 -2.190438 21,000 296 353 64
2019-12-10 14:11:06 GMT 53.246292 -2.182591 21,000 296 353 64
2019-12-10 14:11:03 GMT 53.244873 -2.177804 21,000 306 363 -64
2019-12-10 14:11:00 GMT 53.242447 -2.169557 21,000 297 354 -128
2019-12-10 14:10:57 GMT 53.239883 -2.160932 21,000 297 354 -128
2019-12-10 14:10:54 GMT 53.237324 -2.152593 21,000 323 377 64
2019-12-10 14:10:51 GMT 53.232880 -2.139823 21,000 304 361 -64
2019-12-10 14:10:48 GMT 53.232880 -2.139823 21,000 304 362 -64
2019-12-10 14:10:45 GMT 53.227318 -2.126339 21,000 307 364 -64
2019-12-10 14:10:42 GMT 53.223312 -2.118007 21,000 309 365 0
2019-12-10 14:10:39 GMT 53.223312 -2.118007 21,000 311 367 64
2019-12-10 14:10:36 GMT 53.216904 -2.106315 21,000 327 381 64
2019-12-10 14:10:33 GMT 53.216904 -2.106315 21,000 315 370 64
2019-12-10 14:10:29 GMT 53.211914 -2.098310 21,000 319 374 -64
2019-12-10 14:10:26 GMT 53.207996 -2.092653 21,000 322 376 64
2019-12-10 14:10:23 GMT 53.203762 -2.087079 21,000 324 378 128
2019-12-10 14:10:20 GMT 53.200363 -2.082959 21,000 325 379 128
2019-12-10 14:10:17 GMT 53.196732 -2.078839 20,975 328 382 64
2019-12-10 14:10:14 GMT 53.191334 -2.073346 20,975 334 389 -128
2019-12-10 14:10:11 GMT 53.186954 -2.069307 21,000 332 387 -128
2019-12-10 14:10:08 GMT 53.181519 -2.064880 21,000 335 390 -64
2019-12-10 14:10:05 GMT 53.176434 -2.061229 21,000 339 394 128
2019-12-10 14:10:02 GMT 53.170986 -2.057836 21,000 340 396 128
2019-12-10 14:09:59 GMT 53.166458 -2.055307 21,000 344 400 0
2019-12-10 14:09:56 GMT 53.159363 -2.052089 21,000 346 402 0
2019-12-10 14:09:53 GMT 53.154922 -2.050441 21,000 355 413 0
2019-12-10 14:09:50 GMT 53.150040 -2.049031 21,000 351 408 64
2019-12-10 14:09:47 GMT 53.145218 -2.047852 21,000 353 410 64
2019-12-10 14:09:44 GMT 53.139473 -2.047011 21,000 356 415 -64
2019-12-10 14:09:41 GMT 53.132172 -2.046518 21,000 0 419 -128
2019-12-10 14:09:38 GMT 53.127136 -2.046608 21,000 4 422 128
2019-12-10 14:09:35 GMT 53.120499 -2.047302 21,000 5 423 64
2019-12-10 14:09:32 GMT 53.113869 -2.048546 21,000 7 425 64
2019-12-10 14:09:29 GMT 53.110004 -2.049596 21,000 10 428 -64
2019-12-10 14:09:26 GMT 53.103024 -2.052020 21,000 12 429 -64
2019-12-10 14:09:23 GMT 53.098892 -2.053737 21,000 14 431 -64
2019-12-10 14:09:20 GMT 53.087799 -2.059780 21,000 21 437 -64
2019-12-10 14:09:14 GMT 53.081360 -2.064285 21,000 25 440 -64
2019-12-10 14:09:11 GMT 53.074768 -2.069626 21,000 32 446 -64
2019-12-10 14:09:08 GMT 53.070465 -2.073593 21,000 31 445 -64
2019-12-10 14:09:05 GMT 53.065018 -2.079163 21,000 33 447 -64
2019-12-10 14:09:02 GMT 53.059124 -2.085990 21,000 37 450 64
2019-12-10 14:08:59 GMT 53.054855 -2.091599 21,000 39 451 64
2019-12-10 14:08:56 GMT 53.048927 -2.100351 21,000 44 453 0
2019-12-10 14:08:53 GMT 53.045105 -2.106628 21,000 47 455 -64
2019-12-10 14:08:50 GMT 53.041672 -2.112961 21,000 48 456 -64
2019-12-10 14:08:47 GMT 53.037663 -2.121068 21,000 54 458 0
2019-12-10 14:08:44 GMT 53.032974 -2.132034 21,000 55 459 0
2019-12-10 14:08:41 GMT 53.030029 -2.139744 21,000 59 460 -64
2019-12-10 14:08:38 GMT 53.026772 -2.149397 21,000 62 460 -64
2019-12-10 14:08:35 GMT 53.023956 -2.159195 21,000 66 460 128
2019-12-10 14:08:32 GMT 53.022114 -2.166347 21,000 68 459 320
2019-12-10 14:08:29 GMT 53.017597 -2.189104 20,975 74 459 192
2019-12-10 14:08:26 GMT 53.016174 -2.199402 20,975 76 459 64
2019-12-10 14:08:23 GMT 53.014759 -2.211077 21,000 79 458 -256
2019-12-10 14:08:20 GMT 53.014759 -2.211077 21,000 79 458 -256
2019-12-10 14:08:17 GMT 53.014206 -2.215958 21,025 80 458 -192
2019-12-10 14:08:14 GMT 53.012989 -2.227713 21,025 80 458 -128
2019-12-10 14:08:11 GMT 53.012100 -2.238083 21,000 97 448 -128
2019-12-10 14:08:08 GMT 53.011406 -2.251334 21,000 86 454 0
2019-12-10 14:08:05 GMT 53.011322 -2.260132 21,000 93 450 0
2019-12-10 14:08:02 GMT 53.011551 -2.270050 21,000 97 448 -128
2019-12-10 14:07:59 GMT 53.013153 -2.290421 21,000 100 444 -128
2019-12-10 14:07:53 GMT 53.016666 -2.311994 21,000 108 438 -128
2019-12-10 14:07:50 GMT 53.018345 -2.319371 21,025 110 436 -128
2019-12-10 14:07:44 GMT 53.021324 -2.330279 21,025 124 419 128
2019-12-10 14:07:41 GMT 53.024139 -2.338791 21,025 120 425 -128
2019-12-10 14:07:38 GMT 53.027283 -2.347151 21,025 125 418 192
2019-12-10 14:07:35 GMT 53.030685 -2.355042 21,000 127 416 320
2019-12-10 14:07:32 GMT 53.033615 -2.360916 21,000 138 402 64
2019-12-10 14:07:29 GMT 53.038284 -2.369080 21,000 136 405 0
2019-12-10 14:07:26 GMT 53.042831 -2.376107 21,000 138 402 0
2019-12-10 14:07:23 GMT 53.045975 -2.380676 21,000 139 401 64
2019-12-10 14:07:19 GMT 53.052704 -2.390213 21,000 139 401 -128
2019-12-10 14:07:16 GMT 53.056332 -2.395412 21,000 139 401 64
2019-12-10 14:07:13 GMT 53.063416 -2.405548 21,000 139 401 -64
2019-12-10 14:07:10 GMT 53.067902 -2.411957 21,000 139 401 -128
2019-12-10 14:07:07 GMT 53.067902 -2.411957 21,000 139 402 64
2019-12-10 14:07:01 GMT 53.076675 -2.424447 21,000 139 402 64
2019-12-10 14:06:58 GMT 53.080902 -2.430496 21,000 139 402 0
2019-12-10 14:06:55 GMT 53.085098 -2.436532 21,000 139 402 -64
2019-12-10 14:06:52 GMT 53.089661 -2.442967 21,000 139 402 -64
2019-12-10 14:06:49 GMT 53.094131 -2.449402 21,000 139 402 64
2019-12-10 14:06:46 GMT 53.097794 -2.454660 21,000 139 402 64
2019-12-10 14:06:43 GMT 53.102875 -2.461879 21,000 139 402 -64
2019-12-10 14:06:40 GMT 53.107121 -2.467885 21,000 139 402 -64
2019-12-10 14:06:37 GMT 53.111343 -2.473964 21,000 139 401 0
2019-12-10 14:06:34 GMT 53.115875 -2.480399 21,000 137 402 64
2019-12-10 14:06:31 GMT 53.120060 -2.486465 21,000 138 401 0
2019-12-10 14:06:28 GMT 53.124161 -2.492562 21,000 137 402 0
2019-12-10 14:06:25 GMT 53.127743 -2.497936 21,000 137 403 -64
2019-12-10 14:06:22 GMT 53.131001 -2.502944 21,000 136 403 -64
2019-12-10 14:06:19 GMT 53.134304 -2.508195 21,000 136 403 -64
2019-12-10 14:06:16 GMT 53.139099 -2.516031 21,000 135 403 0
2019-12-10 14:06:13 GMT 53.146919 -2.529117 21,000 133 405 64
2019-12-10 14:06:07 GMT 53.150894 -2.536115 21,000 128 408 0
2019-12-10 14:06:04 GMT 53.154602 -2.542769 21,000 132 406 64
2019-12-10 14:06:01 GMT 53.158234 -2.549555 21,000 131 406 64
2019-12-10 14:05:58 GMT 53.162338 -2.557460 21,000 129 407 0
2019-12-10 14:05:55 GMT 53.165962 -2.564742 21,000 129 407 128
2019-12-10 14:05:52 GMT 53.169525 -2.572056 21,000 129 407 128
2019-12-10 14:05:49 GMT 53.174332 -2.581866 21,000 129 407 64
2019-12-10 14:05:46 GMT 53.176483 -2.586230 21,000 129 407 64
2019-12-10 14:05:43 GMT 53.181427 -2.596462 21,000 129 408 -128
2019-12-10 14:05:40 GMT 53.187840 -2.609576 21,000 129 408 -128
2019-12-10 14:05:34 GMT 53.191406 -2.616943 21,000 128 408 0
2019-12-10 14:05:31 GMT 53.198269 -2.631064 21,000 128 408 0
2019-12-10 14:05:28 GMT 53.202209 -2.639151 21,000 128 408 0
2019-12-10 14:05:25 GMT 53.205765 -2.646493 21,000 128 408 64
2019-12-10 14:05:22 GMT 53.205765 -2.646493 21,000 128 408 64
2019-12-10 14:05:16 GMT 53.212280 -2.659869 21,000 129 409 -64
2019-12-10 14:05:13 GMT 53.216080 -2.667794 21,000 128 410 -128
2019-12-10 14:05:10 GMT 53.223267 -2.682469 21,000 128 411 64
2019-12-10 14:05:07 GMT 53.223267 -2.682469 21,000 128 411 0
2019-12-10 14:05:04 GMT 53.227066 -2.690395 21,000 128 411 0
2019-12-10 14:05:01 GMT 53.233974 -2.704656 21,000 128 412 64
2019-12-10 14:04:55 GMT 53.237091 -2.711112 21,000 128 413 -64
2019-12-10 14:04:52 GMT 53.244076 -2.725498 21,000 128 414 -64
2019-12-10 14:04:49 GMT 53.248993 -2.735753 21,000 128 413 -64
2019-12-10 14:04:46 GMT 53.248993 -2.735753 21,000 128 414 -64
2019-12-10 14:04:43 GMT 53.251244 -2.740362 21,000 128 414 0
2019-12-10 14:04:40 GMT 53.256084 -2.750379 21,000 128 414 64
2019-12-10 14:04:37 GMT 53.258743 -2.755920 21,025 128 414 0
2019-12-10 14:04:34 GMT 53.261860 -2.762334 21,000 128 414 64
2019-12-10 14:04:31 GMT 53.266800 -2.772557 21,000 128 414 0
2019-12-10 14:04:28 GMT 53.269821 -2.778835 21,000 128 414 0
2019-12-10 14:04:25 GMT 53.273163 -2.785819 21,000 128 415 64
2019-12-10 14:04:22 GMT 53.276802 -2.793274 21,000 128 415 64
2019-12-10 14:04:19 GMT 53.280396 -2.800807 21,000 128 416 -64
2019-12-10 14:04:16 GMT 53.284485 -2.809269 21,000 128 415 0
2019-12-10 14:04:13 GMT 53.287369 -2.815327 21,000 128 415 -64
2019-12-10 14:04:10 GMT 53.291092 -2.823002 21,000 129 414 -64
2019-12-10 14:04:07 GMT 53.294861 -2.830784 21,025 129 413 -64
2019-12-10 14:04:04 GMT 53.298355 -2.838027 21,025 128 410 0
2019-12-10 14:04:01 GMT 53.302002 -2.845537 21,025 128 406 -64
2019-12-10 14:03:58 GMT 53.306763 -2.855347 21,025 129 403 0
2019-12-10 14:03:55 GMT 53.309715 -2.861535 21,025 129 401 64
2019-12-10 14:03:52 GMT 53.312599 -2.867351 21,000 128 398 64
2019-12-10 14:03:49 GMT 53.315598 -2.873553 21,000 129 395 0
2019-12-10 14:03:46 GMT 53.319260 -2.881086 21,000 129 393 0
2019-12-10 14:03:43 GMT 53.323120 -2.889162 21,000 128 390 0
2019-12-10 14:03:39 GMT 53.330566 -2.904550 21,000 128 387 -64
2019-12-10 14:03:36 GMT 53.333920 -2.911539 21,000 128 387 0
2019-12-10 14:03:33 GMT 53.337250 -2.918518 21,000 128 386 -64
2019-12-10 14:03:30 GMT 53.337250 -2.918518 21,000 128 386 -64
2019-12-10 14:03:27 GMT 53.341736 -2.927856 21,000 128 386 -64
2019-12-10 14:03:23 GMT 53.345512 -2.935692 21,000 128 386 64
2019-12-10 14:03:20 GMT 53.349518 -2.944013 21,000 128 385 64
2019-12-10 14:03:17 GMT 53.352215 -2.949668 21,000 128 385 0
2019-12-10 14:03:14 GMT 53.358719 -2.963170 21,000 128 384 0
2019-12-10 14:03:11 GMT 53.361572 -2.969217 21,000 128 384 -64
2019-12-10 14:03:05 GMT 53.365948 -2.978264 21,000 128 384 64
2019-12-10 14:03:02 GMT 53.369385 -2.985378 21,000 128 384 64
2019-12-10 14:02:59 GMT 53.375816 -2.998864 21,000 128 383 64
2019-12-10 14:02:56 GMT 53.375816 -2.998864 21,000 128 383 64
2019-12-10 14:02:53 GMT 53.381699 -3.011117 21,000 128 383 64
2019-12-10 14:02:50 GMT 53.385967 -3.020029 21,000 128 382 64
2019-12-10 14:02:47 GMT 53.385967 -3.020029 21,000 128 382 64
2019-12-10 14:02:44 GMT 53.389088 -3.026491 21,000 128 382 0
2019-12-10 14:02:41 GMT 53.392365 -3.033404 21,000 128 382 0
2019-12-10 14:02:38 GMT 53.395889 -3.040780 21,000 128 382 -64
2019-12-10 14:02:35 GMT 53.398304 -3.045879 21,000 128 382 64
2019-12-10 14:02:32 GMT 53.401840 -3.053230 21,000 128 379 1856
2019-12-10 14:02:29 GMT 53.405380 -3.060662 21,000 128 382 192
2019-12-10 14:02:26 GMT 53.408249 -3.066677 21,000 128 382 192
2019-12-10 14:02:23 GMT 53.411526 -3.073587 20,975 128 382 320
2019-12-10 14:02:20 GMT 53.417496 -3.085981 20,900 128 380 1216
2019-12-10 14:02:14 GMT 53.422462 -3.096448 20,750 128 377 2112
2019-12-10 14:02:11 GMT 53.425957 -3.103718 20,650 128 379 1984
2019-12-10 14:02:08 GMT 53.428143 -3.108323 20,600 128 378 2048
2019-12-10 14:02:05 GMT 53.432327 -3.117057 20,450 128 377 2048
2019-12-10 14:02:02 GMT 53.435593 -3.123914 20,425 128 377 2048
2019-12-10 14:01:59 GMT 53.441025 -3.135341 20,225 128 377 1856
2019-12-10 14:01:53 GMT 53.445229 -3.144190 20,150 128 377 1728
2019-12-10 14:01:50 GMT 53.447834 -3.149603 20,050 128 376 1728
2019-12-10 14:01:47 GMT 53.451096 -3.156451 19,975 128 374 1728
2019-12-10 14:01:44 GMT 53.453793 -3.162124 19,500 128 373 1920
2019-12-10 14:01:41 GMT 53.458008 -3.170890 19,750 128 373 2048
2019-12-10 14:01:38 GMT 53.460159 -3.175520 19,625 128 372 2240
2019-12-10 14:01:35 GMT 53.464920 -3.185486 19,525 128 372 2304
2019-12-10 14:01:32 GMT 53.467026 -3.189880 19,450 128 372 2176
2019-12-10 14:01:29 GMT 53.469852 -3.195810 19,300 128 372 2112
2019-12-10 14:01:26 GMT 53.473625 -3.203807 19,225 128 372 2048
2019-12-10 14:01:23 GMT 53.476696 -3.210270 19,150 128 371 1984
2019-12-10 14:01:20 GMT 53.479477 -3.216091 19,050 128 370 1920
2019-12-10 14:01:17 GMT 53.483120 -3.223760 18,975 128 370 1920
2019-12-10 14:01:14 GMT 53.486519 -3.230950 18,850 128 369 1984
2019-12-10 14:01:11 GMT 53.489639 -3.237514 18,700 128 368 2112
2019-12-10 14:01:08 GMT 53.493073 -3.244812 18,550 128 367 2240
2019-12-10 14:01:05 GMT 53.495178 -3.249207 18,525 128 363 1920
2019-12-10 14:01:02 GMT 53.499229 -3.257769 18,400 128 367 2240
2019-12-10 14:00:59 GMT 53.502365 -3.264430 18,325 128 367 2176
2019-12-10 14:00:56 GMT 53.505512 -3.271018 18,175 128 367 2240
2019-12-10 14:00:53 GMT 53.509750 -3.279984 18,025 128 366 2176
2019-12-10 14:00:47 GMT 53.515614 -3.292425 17,825 128 365 2048
2019-12-10 14:00:44 GMT 53.518341 -3.298174 17,675 128 364 2048
2019-12-10 14:00:41 GMT 53.521900 -3.305673 17,625 128 363 1920
2019-12-10 14:00:38 GMT 53.524834 -3.311974 17,350 128 363 1920
2019-12-10 14:00:35 GMT 53.527039 -3.316616 17,450 128 363 1920
2019-12-10 14:00:32 GMT 53.530651 -3.324253 17,250 128 362 1920
2019-12-10 14:00:29 GMT 53.534374 -3.332169 17,250 128 361 1856
2019-12-10 14:00:26 GMT 53.536842 -3.337420 17,150 128 360 1856
2019-12-10 14:00:23 GMT 53.540405 -3.344945 17,075 128 360 1856
2019-12-10 14:00:20 GMT 53.543499 -3.351476 16,925 128 359 1984
2019-12-10 14:00:17 GMT 53.545967 -3.356808 16,900 128 358 1984
2019-12-10 14:00:14 GMT 53.548855 -3.362867 16,800 128 358 2048
2019-12-10 14:00:11 GMT 53.552673 -3.370998 16,675 128 357 2112
2019-12-10 14:00:08 GMT 53.555416 -3.376842 16,600 128 357 2112
2019-12-10 14:00:05 GMT 53.564121 -3.394775 16,400 129 355 2240
2019-12-10 14:00:01 GMT 53.564121 -3.394775 16,275 130 352 2432
2019-12-10 13:59:58 GMT 53.565800 -3.398087 16,225 130 352 2496
2019-12-10 13:59:55 GMT 53.569016 -3.404349 16,000 131 351 2688
2019-12-10 13:59:51 GMT 53.573227 -3.412275 15,950 131 351 2816
2019-12-10 13:59:48 GMT 53.576797 -3.418788 15,675 133 349 2944
2019-12-10 13:59:45 GMT 53.579670 -3.423938 15,575 135 347 2816
2019-12-10 13:59:42 GMT 53.583302 -3.430239 15,225 135 347 2880
2019-12-10 13:59:39 GMT 53.587353 -3.436944 15,225 136 346 2624
2019-12-10 13:59:36 GMT 53.589523 -3.440369 15,200 136 345 2496
2019-12-10 13:59:33 GMT 53.593735 -3.446960 15,075 137 343 1536
2019-12-10 13:59:30 GMT 53.597080 -3.452211 15,025 137 341 704
2019-12-10 13:59:27 GMT 53.601273 -3.458674 15,000 137 338 128
2019-12-10 13:59:24 GMT 53.603134 -3.461582 15,000 137 338 -64
2019-12-10 13:59:21 GMT 53.608719 -3.470306 15,000 137 338 -64
2019-12-10 13:59:18 GMT 53.611465 -3.474588 15,000 137 336 -64
2019-12-10 13:59:15 GMT 53.618263 -3.485251 15,000 137 335 0
2019-12-10 13:59:12 GMT 53.618263 -3.485251 15,000 137 335 64
2019-12-10 13:59:09 GMT 53.621246 -3.489807 15,000 137 335 -64
2019-12-10 13:59:06 GMT 53.623947 -3.494123 15,000 137 335 -64
2019-12-10 13:59:03 GMT 53.628067 -3.500480 15,000 137 335 0
2019-12-10 13:59:00 GMT 53.631683 -3.506130 15,000 137 335 0
2019-12-10 13:58:57 GMT 53.635757 -3.512565 15,000 137 335 0
2019-12-10 13:58:54 GMT 53.638279 -3.516433 15,000 137 335 0
2019-12-10 13:58:51 GMT 53.641663 -3.521746 15,000 137 335 0
2019-12-10 13:58:48 GMT 53.645077 -3.527096 15,000 137 335 -64
2019-12-10 13:58:45 GMT 53.648483 -3.532340 15,000 137 334 0
2019-12-10 13:58:42 GMT 53.655258 -3.543012 15,000 137 334 64
2019-12-10 13:58:39 GMT 53.655258 -3.543012 15,000 137 334 64
2019-12-10 13:58:35 GMT 53.659973 -3.550442 15,000 137 334 64
2019-12-10 13:58:31 GMT 53.665325 -3.558843 15,000 137 334 -64
2019-12-10 13:58:27 GMT 53.669266 -3.564985 15,000 137 334 -64
2019-12-10 13:58:24 GMT 53.672424 -3.569929 15,000 137 334 0
2019-12-10 13:58:21 GMT 53.674667 -3.573460 15,000 137 334 -64
2019-12-10 13:58:18 GMT 53.678741 -3.579817 15,000 137 334 -64
2019-12-10 13:58:15 GMT 53.681667 -3.584451 15,000 136 333 -64
2019-12-10 13:58:12 GMT 53.686134 -3.591398 15,000 136 333 -64
2019-12-10 13:58:06 GMT 53.692978 -3.602142 15,000 137 333 0
2019-12-10 13:58:03 GMT 53.695908 -3.606733 15,000 137 333 0
2019-12-10 13:58:00 GMT 53.699265 -3.612078 15,000 137 333 0
2019-12-10 13:57:57 GMT 53.702225 -3.616699 15,000 137 333 64
2019-12-10 13:57:54 GMT 53.705338 -3.621643 15,000 136 332 0
2019-12-10 13:57:51 GMT 53.712112 -3.632159 15,000 137 331 -64
2019-12-10 13:57:45 GMT 53.716141 -3.638515 15,000 137 331 0
2019-12-10 13:57:42 GMT 53.721085 -3.646284 15,000 136 331 64
2019-12-10 13:57:39 GMT 53.723099 -3.649480 15,000 136 331 64
2019-12-10 13:57:36 GMT 53.726028 -3.654053 15,000 136 331 64
2019-12-10 13:57:33 GMT 53.728916 -3.658609 15,000 136 331 64
2019-12-10 13:57:30 GMT 53.736191 -3.670061 15,000 136 329 -64
2019-12-10 13:57:27 GMT 53.739578 -3.675331 15,000 137 330 -64
2019-12-10 13:57:24 GMT 53.739578 -3.675331 15,000 137 330 0
2019-12-10 13:57:21 GMT 53.742790 -3.680420 15,000 136 329 0
2019-12-10 13:57:18 GMT 53.746326 -3.685994 15,000 136 329 0
2019-12-10 13:57:14 GMT 53.750565 -3.692662 15,000 136 329 -64
2019-12-10 13:57:11 GMT 53.754089 -3.698233 15,000 136 329 -64
2019-12-10 13:57:07 GMT 53.758484 -3.705139 15,000 136 329 -64
2019-12-10 13:57:04 GMT 53.761688 -3.710161 15,000 136 329 0
2019-12-10 13:57:01 GMT 53.764297 -3.714242 15,000 136 329 0
2019-12-10 13:56:58 GMT 53.769047 -3.721699 15,000 136 329 0
2019-12-10 13:56:54 GMT 53.773003 -3.728000 15,000 136 329 -64
2019-12-10 13:56:51 GMT 53.776840 -3.734018 15,000 137 330 -256
2019-12-10 13:56:48 GMT 53.782406 -3.742783 15,050 137 330 -704
2019-12-10 13:56:45 GMT 53.786407 -3.749084 15,075 136 331 -960
2019-12-10 13:56:42 GMT 53.786407 -3.749084 15,175 136 332 -1856
2019-12-10 13:56:39 GMT 53.789795 -3.754421 15,225 136 331 -1728
2019-12-10 13:56:36 GMT 53.792694 -3.759021 15,275 136 332 -1984
2019-12-10 13:56:33 GMT 53.796280 -3.764675 15,350 136 332 -2048
2019-12-10 13:56:30 GMT 53.799816 -3.770249 15,425 136 332 -2048
2019-12-10 13:56:27 GMT 53.802143 -3.773884 16,050 137 334 -1984
2019-12-10 13:56:24 GMT 53.806194 -3.780266 15,600 136 333 -1984
2019-12-10 13:56:21 GMT 53.809113 -3.784947 15,750 136 335 -1984
2019-12-10 13:56:18 GMT 53.814011 -3.792637 15,875 136 335 -2048
2019-12-10 13:56:15 GMT 53.816391 -3.796326 16,050 136 336 -2048
2019-12-10 13:56:11 GMT 53.820923 -3.803545 16,075 136 336 -2048
2019-12-10 13:56:08 GMT 53.827980 -3.814679 16,275 137 337 -2176
2019-12-10 13:56:05 GMT 53.832275 -3.821437 16,350 137 337 -2240
2019-12-10 13:56:02 GMT 53.832275 -3.821437 16,450 136 338 -2304
2019-12-10 13:55:56 GMT 53.838455 -3.831159 16,650 136 338 -2240
2019-12-10 13:55:53 GMT 53.841385 -3.835798 16,750 136 338 -2240
2019-12-10 13:55:50 GMT 53.850998 -3.851022 17,000 136 338 -2112
2019-12-10 13:55:46 GMT 53.850998 -3.851022 17,050 136 338 -2176
2019-12-10 13:55:43 GMT 53.853073 -3.854262 17,150 136 339 -2048
2019-12-10 13:55:40 GMT 53.857121 -3.860725 17,200 136 339 -2112
2019-12-10 13:55:37 GMT 53.858986 -3.863714 17,625 135 341 -1920
2019-12-10 13:55:34 GMT 53.864429 -3.872519 17,425 135 340 -1920
2019-12-10 13:55:31 GMT 53.866882 -3.876604 17,525 135 342 -1856
2019-12-10 13:55:28 GMT 53.870251 -3.882132 17,625 135 342 -1856
2019-12-10 13:55:25 GMT 53.874115 -3.888532 17,650 135 343 -1792
2019-12-10 13:55:22 GMT 53.876907 -3.893241 17,775 132 348 -2752
2019-12-10 13:55:19 GMT 53.880119 -3.899177 17,925 131 351 -3008
2019-12-10 13:55:16 GMT 53.882858 -3.904776 18,150 128 354 -3584
2019-12-10 13:55:13 GMT 53.886429 -3.912859 18,300 125 360 -3648
2019-12-10 13:55:10 GMT 53.888870 -3.918969 18,450 123 365 -3456
2019-12-10 13:55:07 GMT 53.891384 -3.925754 18,575 117 379 -3456
2019-12-10 13:55:04 GMT 53.894131 -3.933913 18,750 118 376 -3392
2019-12-10 13:55:01 GMT 53.899246 -3.952802 19,025 114 384 -3776
2019-12-10 13:54:58 GMT 53.899246 -3.952802 19,400 110 391 -4288
2019-12-10 13:54:55 GMT 53.901115 -3.961702 19,775 103 402 -4480
2019-12-10 13:54:52 GMT 53.901901 -3.965908 19,525 103 402 -4480
2019-12-10 13:54:49 GMT 53.903687 -3.977757 19,850 101 404 -4416
2019-12-10 13:54:46 GMT 53.904694 -3.986546 20,200 90 421 -4288
2019-12-10 13:54:43 GMT 53.905491 -3.996438 20,250 95 413 -4288
2019-12-10 13:54:40 GMT 53.905956 -4.006778 20,650 87 426 -3904
2019-12-10 13:54:37 GMT 53.906094 -4.018573 20,700 89 421 -4224
2019-12-10 13:54:34 GMT 53.906002 -4.026489 20,800 88 423 -4224
2019-12-10 13:54:31 GMT 53.905884 -4.035121 21,025 88 424 -4160
2019-12-10 13:54:28 GMT 53.905655 -4.044460 21,225 87 427 -3712
2019-12-10 13:54:25 GMT 53.905258 -4.055894 21,400 85 429 -3712
2019-12-10 13:54:22 GMT 53.904648 -4.064628 21,900 79 439 -4480
2019-12-10 13:54:19 GMT 53.903778 -4.073887 21,825 79 438 -3968
2019-12-10 13:54:16 GMT 53.902557 -4.085379 21,975 79 439 -4032
2019-12-10 13:54:13 GMT 53.901443 -4.095468 22,150 79 439 -4352
2019-12-10 13:54:10 GMT 53.900253 -4.106454 22,425 79 439 -4544
2019-12-10 13:54:07 GMT 53.899158 -4.116561 22,575 79 439 -4672
2019-12-10 13:54:04 GMT 53.897110 -4.135302 23,075 79 440 -4224
2019-12-10 13:54:01 GMT 53.895901 -4.146369 23,225 79 440 -4224
2019-12-10 13:53:58 GMT 53.895901 -4.146369 23,425 79 442 -3904
2019-12-10 13:53:55 GMT 53.893524 -4.168100 23,650 79 443 -3776
2019-12-10 13:53:52 GMT 53.893524 -4.168100 23,850 79 445 -3648
2019-12-10 13:53:49 GMT 53.892502 -4.177713 23,950 79 446 -3712
2019-12-10 13:53:46 GMT 53.891293 -4.188699 24,100 79 447 -3904
2019-12-10 13:53:43 GMT 53.890366 -4.197719 24,350 79 448 -4224
2019-12-10 13:53:40 GMT 53.889359 -4.207214 24,525 79 448 -4352
2019-12-10 13:53:37 GMT 53.888126 -4.218831 24,775 80 448 -4480
2019-12-10 13:53:34 GMT 53.885891 -4.241127 25,225 80 449 -4288
2019-12-10 13:53:31 GMT 53.885891 -4.241127 25,250 80 448 -4352
2019-12-10 13:53:28 GMT 53.884186 -4.259949 25,675 81 449 -4288
2019-12-10 13:53:25 GMT 53.884186 -4.259949 25,800 83 448 -4224
2019-12-10 13:53:22 GMT 53.882858 -4.283569 25,950 85 447 -4160
2019-12-10 13:53:19 GMT 53.882858 -4.283569 26,100 86 446 -4096
2019-12-10 13:53:16 GMT 53.882629 -4.290632 26,250 87 446 -3968
2019-12-10 13:53:13 GMT 53.882492 -4.302952 26,575 93 445 -3392
2019-12-10 13:53:10 GMT 53.882584 -4.312762 26,600 91 446 -3392
2019-12-10 13:53:07 GMT 53.882904 -4.325317 26,850 93 445 -3392
2019-12-10 13:53:04 GMT 53.883408 -4.335048 27,050 96 443 -3328
2019-12-10 13:52:58 GMT 53.884918 -4.354431 27,300 99 442 -3072
2019-12-10 13:52:55 GMT 53.885880 -4.363770 27,450 101 442 -2560
2019-12-10 13:52:52 GMT 53.889057 -4.387261 27,600 105 440 -1088
2019-12-10 13:52:49 GMT 53.889057 -4.387261 27,625 104 440 -1280
2019-12-10 13:52:46 GMT 53.892036 -4.404467 27,675 106 439 -384
2019-12-10 13:52:43 GMT 53.892036 -4.404467 27,650 110 434 896
2019-12-10 13:52:40 GMT 53.893936 -4.414385 27,600 110 435 896
2019-12-10 13:52:37 GMT 53.896320 -4.425067 27,575 111 433 832
2019-12-10 13:52:33 GMT 53.899933 -4.439340 27,550 113 430 768
2019-12-10 13:52:30 GMT 53.904373 -4.454799 27,450 116 425 1024
2019-12-10 13:52:27 GMT 53.904373 -4.454799 27,400 118 422 1152
2019-12-10 13:52:24 GMT 53.907074 -4.463196 27,350 119 420 1152
2019-12-10 13:52:21 GMT 53.910141 -4.472377 27,325 119 421 1216
2019-12-10 13:52:18 GMT 53.912842 -4.480382 27,300 119 421 1152
2019-12-10 13:52:15 GMT 53.916229 -4.490426 27,200 119 420 960
2019-12-10 13:52:12 GMT 53.918060 -4.495832 27,175 119 420 768
2019-12-10 13:52:09 GMT 53.921875 -4.507222 27,175 119 419 384
2019-12-10 13:52:06 GMT 53.924576 -4.515219 27,150 119 417 192
2019-12-10 13:52:03 GMT 53.927032 -4.522600 27,150 119 417 448
2019-12-10 13:51:59 GMT 53.932583 -4.539050 27,050 119 417 832
2019-12-10 13:51:56 GMT 53.934265 -4.544181 26,625 125 403 1024
2019-12-10 13:51:52 GMT 53.939987 -4.561131 26,975 119 413 832
2019-12-10 13:51:49 GMT 53.939987 -4.561131 26,900 119 413 896
2019-12-10 13:51:45 GMT 53.944839 -4.575413 26,925 120 413 896
2019-12-10 13:51:42 GMT 53.950039 -4.590427 26,825 121 409 1024
2019-12-10 13:51:39 GMT 53.954834 -4.603595 26,750 123 406 1088
2019-12-10 13:51:35 GMT 53.954834 -4.603595 26,700 123 406 1088
2019-12-10 13:51:32 GMT 53.956978 -4.609169 26,675 124 406 1088
2019-12-10 13:51:29 GMT 53.961586 -4.620397 26,625 125 403 1024
2019-12-10 13:51:26 GMT 53.963402 -4.624679 26,575 126 402 1024
2019-12-10 13:51:22 GMT 53.968048 -4.634975 26,525 128 397 1024
2019-12-10 13:51:19 GMT 53.971344 -4.641881 26,450 129 396 960
2019-12-10 13:51:16 GMT 53.974854 -4.649075 26,425 129 395 960
2019-12-10 13:51:13 GMT 53.978806 -4.657183 26,350 129 395 1088
2019-12-10 13:51:10 GMT 53.981964 -4.663618 26,275 129 394 1152
2019-12-10 13:51:07 GMT 53.986176 -4.672250 26,275 129 394 1152
2019-12-10 13:51:04 GMT 53.989517 -4.679077 26,200 129 394 1152
2019-12-10 13:51:01 GMT 53.993008 -4.686154 26,175 129 394 1152
2019-12-10 13:50:58 GMT 53.995422 -4.691162 26,100 129 392 1280
2019-12-10 13:50:54 GMT 54.001804 -4.704168 25,975 129 392 1408
2019-12-10 13:50:51 GMT 54.004135 -4.708934 25,875 129 392 1408
2019-12-10 13:50:48 GMT 54.011536 -4.724040 25,800 129 392 1472
2019-12-10 13:50:45 GMT 54.011536 -4.724040 25,750 129 392 1472
2019-12-10 13:50:41 GMT 54.016144 -4.733573 25,700 129 392 1472
2019-12-10 13:50:38 GMT 54.018471 -4.738258 25,650 129 392 1472
2019-12-10 13:50:34 GMT 54.024475 -4.750618 25,500 129 392 1472
2019-12-10 13:50:31 GMT 54.026917 -4.755589 25,375 129 392 1600
2019-12-10 13:50:28 GMT 54.030716 -4.763436 25,350 129 392 1536
2019-12-10 13:50:25 GMT 54.034161 -4.770490 25,250 129 392 1664
2019-12-10 13:50:22 GMT 54.038815 -4.780022 25,175 129 392 1792
2019-12-10 13:50:18 GMT 54.042072 -4.786727 25,100 129 392 1536
2019-12-10 13:50:14 GMT 54.047333 -4.797494 24,975 129 392 1280
2019-12-10 13:50:11 GMT 54.049622 -4.802281 24,950 129 392 1280
2019-12-10 13:50:08 GMT 54.053619 -4.810396 24,900 129 391 1024
2019-12-10 13:50:05 GMT 54.057999 -4.819388 24,850 129 389 1024
2019-12-10 13:50:02 GMT 54.060463 -4.824371 24,800 129 389 1088
2019-12-10 13:49:59 GMT 54.063950 -4.831552 24,725 129 388 1024
2019-12-10 13:49:56 GMT 54.068069 -4.840027 24,675 129 387 1152
2019-12-10 13:49:53 GMT 54.072098 -4.848267 24,600 129 385 1216
2019-12-10 13:49:47 GMT 54.081253 -4.867022 24,475 129 384 1472
2019-12-10 13:49:44 GMT 54.081253 -4.867022 24,350 129 384 1664
2019-12-10 13:49:41 GMT 54.086857 -4.878576 24,350 129 384 1664
2019-12-10 13:49:37 GMT 54.088718 -4.882373 24,225 129 384 1664
2019-12-10 13:49:34 GMT 54.092102 -4.889387 24,175 129 384 1728
2019-12-10 13:49:31 GMT 54.095425 -4.896186 24,100 129 384 1792
2019-12-10 13:49:27 GMT 54.099983 -4.905638 23,950 129 383 1920
2019-12-10 13:49:24 GMT 54.104500 -4.915009 23,875 129 384 1920
2019-12-10 13:49:21 GMT 54.106781 -4.919613 23,625 129 384 1728
2019-12-10 13:49:17 GMT 54.111008 -4.928310 23,600 129 384 1664
2019-12-10 13:49:14 GMT 54.114670 -4.935922 23,575 129 383 1664
2019-12-10 13:49:11 GMT 54.118698 -4.944162 23,450 129 383 1728
2019-12-10 13:49:06 GMT 54.123028 -4.953138 23,325 129 383 1792
2019-12-10 13:49:03 GMT 54.127079 -4.961539 23,050 129 382 1600
2019-12-10 13:49:00 GMT 54.129780 -4.967113 23,150 129 383 1792
2019-12-10 13:48:56 GMT 54.134666 -4.977211 22,975 129 382 1600
2019-12-10 13:48:53 GMT 54.141415 -4.991105 22,950 129 382 1600
2019-12-10 13:48:50 GMT 54.141415 -4.991105 22,875 129 382 1664
2019-12-10 13:48:47 GMT 54.145248 -4.999093 22,825 129 381 1664
2019-12-10 13:48:44 GMT 54.148407 -5.005607 22,650 129 380 1728
2019-12-10 13:48:41 GMT 54.152435 -5.013925 22,650 129 380 1728
2019-12-10 13:48:36 GMT 54.157570 -5.024549 22,450 129 379 1728
2019-12-10 13:48:33 GMT 54.161991 -5.033758 22,375 129 379 1728
2019-12-10 13:48:30 GMT 54.164227 -5.038362 22,300 129 379 1728
2019-12-10 13:48:26 GMT 54.168697 -5.047572 22,175 129 377 1664
2019-12-10 13:48:23 GMT 54.176563 -5.063970 22,025 129 377 1664
2019-12-10 13:48:20 GMT 54.176563 -5.063970 21,400 129 377 1664
2019-12-10 13:48:16 GMT 54.179901 -5.070897 21,925 129 376 1600
2019-12-10 13:48:13 GMT 54.183060 -5.077488 21,850 129 375 1536
2019-12-10 13:48:09 GMT 54.191647 -5.095233 21,650 129 374 1472
2019-12-10 13:48:05 GMT 54.191647 -5.095233 21,600 129 372 1472
2019-12-10 13:48:02 GMT 54.195831 -5.103856 21,550 129 372 1408
2019-12-10 13:47:59 GMT 54.197983 -5.108407 21,500 129 371 1408
2019-12-10 13:47:56 GMT 54.202377 -5.117510 21,450 129 370 1408
2019-12-10 13:47:53 GMT 54.204987 -5.122925 21,375 129 370 1408
2019-12-10 13:47:50 GMT 54.208591 -5.130373 21,275 129 367 1344
2019-12-10 13:47:45 GMT 54.213638 -5.140817 21,175 129 366 1280
2019-12-10 13:47:42 GMT 54.217716 -5.149276 21,075 129 364 1280
2019-12-10 13:47:39 GMT 54.223721 -5.161716 21,000 129 362 1280
2019-12-10 13:47:35 GMT 54.227737 -5.170088 20,950 129 362 1280
2019-12-10 13:47:32 GMT 54.227737 -5.170088 20,900 129 360 1280
2019-12-10 13:47:29 GMT 54.230518 -5.175772 20,850 129 359 1344
2019-12-10 13:47:25 GMT 54.238174 -5.191746 20,750 129 358 1600
2019-12-10 13:47:22 GMT 54.238174 -5.191746 20,625 129 357 1728
2019-12-10 13:47:19 GMT 54.241241 -5.198024 20,575 129 357 1728
2019-12-10 13:47:14 GMT 54.246231 -5.208461 19,725 127 352 2496
2019-12-10 13:47:11 GMT 54.249371 -5.214951 20,375 129 354 1408
2019-12-10 13:47:08 GMT 54.251839 -5.220121 20,325 129 353 1344
2019-12-10 13:47:05 GMT 54.254974 -5.226589 20,250 129 353 1344
2019-12-10 13:47:02 GMT 54.258450 -5.233935 20,175 129 351 1472
2019-12-10 13:46:59 GMT 54.262127 -5.241690 20,125 128 351 1536
2019-12-10 13:46:55 GMT 54.266457 -5.250980 19,950 128 351 2240
2019-12-10 13:46:51 GMT 54.269760 -5.258170 19,800 127 352 2496
2019-12-10 13:46:48 GMT 54.272369 -5.263864 19,700 127 351 2496
2019-12-10 13:46:44 GMT 54.279785 -5.280708 19,325 126 351 2496
2019-12-10 13:46:41 GMT 54.279785 -5.280708 19,325 126 350 2496
2019-12-10 13:46:34 GMT 54.286472 -5.296159 19,100 125 350 2688
2019-12-10 13:46:31 GMT 54.289307 -5.302923 18,950 125 350 2752
2019-12-10 13:46:28 GMT 54.292107 -5.309642 18,825 125 350 2496
2019-12-10 13:46:25 GMT 54.294807 -5.316134 18,750 125 350 2496
2019-12-10 13:46:21 GMT 54.299423 -5.327481 18,500 124 348 2560
2019-12-10 13:46:18 GMT 54.301788 -5.333363 18,375 124 347 2688
2019-12-10 13:46:13 GMT 54.305420 -5.342185 18,300 124 347 2752
2019-12-10 13:46:10 GMT 54.309311 -5.351796 17,925 124 345 3072
2019-12-10 13:46:07 GMT 54.310776 -5.355431 17,775 124 345 3072
2019-12-10 13:46:04 GMT 54.314804 -5.365286 17,700 124 345 3200
2019-12-10 13:46:00 GMT 54.317898 -5.372897 17,500 124 345 3264
2019-12-10 13:45:57 GMT 54.320572 -5.379504 17,275 124 345 3136
2019-12-10 13:45:53 GMT 54.324039 -5.388128 17,225 124 345 3136
2019-12-10 13:45:50 GMT 54.329861 -5.402360 16,875 124 345 3072
2019-12-10 13:45:47 GMT 54.329861 -5.402360 16,775 124 344 3072
2019-12-10 13:45:41 GMT 54.334808 -5.414563 16,450 124 344 3008
2019-12-10 13:45:38 GMT 54.338013 -5.422561 16,375 124 343 2944
2019-12-10 13:45:34 GMT 54.341171 -5.430242 16,200 124 343 2816
2019-12-10 13:45:31 GMT 54.344559 -5.438556 16,025 124 341 2688
2019-12-10 13:45:28 GMT 54.346992 -5.444475 16,000 124 341 2752
2019-12-10 13:45:24 GMT 54.350204 -5.452381 15,725 124 338 2560
2019-12-10 13:45:21 GMT 54.352997 -5.459206 15,650 125 338 2496
2019-12-10 13:45:18 GMT 54.356953 -5.468944 15,425 124 335 2944
2019-12-10 13:45:14 GMT 54.362045 -5.481531 15,100 124 334 4160
2019-12-10 13:45:11 GMT 54.362045 -5.481531 15,100 124 334 4160
2019-12-10 13:45:08 GMT 54.366989 -5.493810 14,725 124 334 4032
2019-12-10 13:45:05 GMT 54.366989 -5.493810 14,550 124 335 3712
2019-12-10 13:45:02 GMT 54.369663 -5.500405 14,425 124 335 3712
2019-12-10 13:44:59 GMT 54.373154 -5.509144 14,375 124 335 3712
2019-12-10 13:44:56 GMT 54.374874 -5.513472 14,150 124 335 3840
2019-12-10 13:44:52 GMT 54.378525 -5.522488 13,875 124 335 3904
2019-12-10 13:44:49 GMT 54.382462 -5.532343 13,575 127 332 2816
2019-12-10 13:44:46 GMT 54.386032 -5.541068 13,375 125 336 3392
2019-12-10 13:44:43 GMT 54.389603 -5.549550 13,250 125 335 3264
2019-12-10 13:44:40 GMT 54.389603 -5.549550 12,975 126 335 3072
2019-12-10 13:44:37 GMT 54.392380 -5.555919 13,050 126 333 3008
2019-12-10 13:44:33 GMT 54.395920 -5.564010 12,875 127 333 2944
2019-12-10 13:44:30 GMT 54.398941 -5.570715 12,675 128 331 2624
2019-12-10 13:44:26 GMT 54.402374 -5.577985 12,525 128 330 2560
2019-12-10 13:44:23 GMT 54.405121 -5.583801 12,450 129 330 2496
2019-12-10 13:44:20 GMT 54.408070 -5.589794 12,350 130 327 2432
2019-12-10 13:44:17 GMT 54.417099 -5.607771 12,000 131 323 2688
2019-12-10 13:44:12 GMT 54.417099 -5.607771 11,875 131 323 2752
2019-12-10 13:44:08 GMT 54.424805 -5.622657 11,700 131 322 2816
2019-12-10 13:44:04 GMT 54.424805 -5.622657 11,575 131 320 3136
2019-12-10 13:44:01 GMT 54.426727 -5.626373 11,300 131 320 3136
2019-12-10 13:43:58 GMT 54.430252 -5.633240 11,300 131 320 3136
2019-12-10 13:43:54 GMT 54.434143 -5.640672 10,825 131 317 2624
2019-12-10 13:43:51 GMT 54.436935 -5.646084 10,850 131 313 2048
2019-12-10 13:43:48 GMT 54.439816 -5.651634 10,825 131 311 1856
2019-12-10 13:43:45 GMT 54.442425 -5.656711 10,725 131 308 1728
2019-12-10 13:43:42 GMT 54.444752 -5.661205 10,675 131 305 1664
2019-12-10 13:43:39 GMT 54.448475 -5.668363 10,525 131 298 2240
2019-12-10 13:43:36 GMT 54.452152 -5.675437 10,400 131 295 2496
2019-12-10 13:43:33 GMT 54.453415 -5.677912 10,375 131 287 2688
2019-12-10 13:43:30 GMT 54.455738 -5.682429 10,175 131 291 2496
2019-12-10 13:43:27 GMT 54.458622 -5.687922 10,100 131 289 2560
2019-12-10 13:43:24 GMT 54.461414 -5.693498 9,875 131 287 2752
2019-12-10 13:43:21 GMT 54.464954 -5.700323 9,750 131 287 2880
2019-12-10 13:43:17 GMT 54.467468 -5.705297 9,625 131 286 2816
2019-12-10 13:43:13 GMT 54.473511 -5.717091 9,350 131 285 2816
2019-12-10 13:43:07 GMT 54.478500 -5.726956 8,975 131 282 2752
2019-12-10 13:43:04 GMT 54.480972 -5.731874 8,975 131 282 2752
2019-12-10 13:43:01 GMT 54.480972 -5.731874 8,775 130 280 2624
2019-12-10 13:42:58 GMT 54.485138 -5.740033 8,700 130 279 2624
2019-12-10 13:42:54 GMT 54.487671 -5.745101 8,500 130 277 2880
2019-12-10 13:42:51 GMT 54.489532 -5.748758 8,500 130 277 2880
2019-12-10 13:42:47 GMT 54.493195 -5.756109 8,225 130 276 3008
2019-12-10 13:42:44 GMT 54.496124 -5.762168 8,050 130 276 3072
2019-12-10 13:42:40 GMT 54.499329 -5.768711 7,850 129 275 3328
2019-12-10 13:42:37 GMT 54.501869 -5.773898 7,675 129 275 3264
2019-12-10 13:42:33 GMT 54.504868 -5.780101 7,475 129 275 3264
2019-12-10 13:42:30 GMT 54.507595 -5.785883 7,300 128 275 3200
2019-12-10 13:42:23 GMT 54.512669 -5.796786 6,950 128 274 3200
2019-12-10 13:42:20 GMT 54.515396 -5.802801 6,825 127 274 3136
2019-12-10 13:42:17 GMT 54.517605 -5.807939 6,625 125 275 3072
2019-12-10 13:42:14 GMT 54.519836 -5.813302 6,475 124 275 2944
2019-12-10 13:42:10 GMT 54.521980 -5.818676 6,325 124 275 2880
2019-12-10 13:42:07 GMT 54.524914 -5.826083 6,125 125 273 2816
2019-12-10 13:42:03 GMT 54.527161 -5.831236 5,925 130 267 2688
2019-12-10 13:42:00 GMT 54.529896 -5.836737 5,850 133 264 2688
2019-12-10 13:41:57 GMT 54.536591 -5.846585 5,675 139 257 2752
2019-12-10 13:41:54 GMT 54.536591 -5.846585 5,500 144 252 2944
2019-12-10 13:41:51 GMT 54.538879 -5.849412 5,375 144 251 3136
2019-12-10 13:41:47 GMT 54.542091 -5.853299 5,275 144 251 3200
2019-12-10 13:41:43 GMT 54.545609 -5.857975 4,975 139 254 2944
2019-12-10 13:41:39 GMT 54.549408 -5.864195 4,800 132 259 2560
2019-12-10 13:41:33 GMT 54.554031 -5.873808 4,550 126 263 2240
2019-12-10 13:41:30 GMT 54.556046 -5.878493 4,425 127 259 1408
2019-12-10 13:41:27 GMT 54.558571 -5.884094 4,400 128 256 1024
2019-12-10 13:41:22 GMT 54.561550 -5.890336 4,350 131 249 704
2019-12-10 13:41:19 GMT 54.563828 -5.894650 4,325 134 242 448
2019-12-10 13:41:16 GMT 54.569324 -5.902072 4,275 150 216 576
2019-12-10 13:41:13 GMT 54.572491 -5.904818 4,275 150 216 576
2019-12-10 13:41:10 GMT 54.572491 -5.904818 4,250 159 201 640
2019-12-10 13:41:07 GMT 54.575363 -5.906444 4,225 165 191 768
2019-12-10 13:41:02 GMT 54.581474 -5.907399 4,125 185 164 1280
2019-12-10 13:40:59 GMT 54.581474 -5.907399 4,075 188 160 1408
2019-12-10 13:40:56 GMT 54.583244 -5.906982 4,050 193 154 1472
2019-12-10 13:40:53 GMT 54.585850 -5.905568 3,925 204 142 1920
2019-12-10 13:40:49 GMT 54.589325 -5.902566 3,775 208 135 2368
2019-12-10 13:40:46 GMT 54.589325 -5.902566 3,700 208 134 2624
2019-12-10 13:40:42 GMT 54.591522 -5.900547 3,525 209 133 2816
2019-12-10 13:40:36 GMT 54.594650 -5.897577 3,275 209 132 2880
2019-12-10 13:40:32 GMT 54.597023 -5.895330 3,025 210 132 3200
2019-12-10 13:40:28 GMT 54.599075 -5.893357 2,775 210 132 3136
2019-12-10 13:40:25 GMT 54.600422 -5.892001 2,775 210 132 3136
2019-12-10 13:40:21 GMT 54.602417 -5.890045 2,425 210 129 4160
2019-12-10 13:40:16 GMT 54.605263 -5.887257 2,125 215 140 4352
2019-12-10 13:40:05 GMT 54.610931 -5.880998 1,225 214 142 4416
2019-12-10 13:39:26 GMT 54.624596 -5.864743 0 216 0
2019-12-10 13:39:14 GMT 54.624596 -5.864740 0 216 2
2019-12-10 13:38:48 GMT 54.624676 -5.865347 0 25 11
2019-12-10 13:38:03 GMT 54.620708 -5.869404 0 33 29

Making use of Plane Finder data

You are free to use the raw flight data, aircraft information and images provided in this report for your own purposes provided the data is correctly attributed to Plane Finder. We ask that you please credit Plane Finder and link to planefinder.net in close proximity to the content.

Optionally one of the following logos (no smaller then 150x24px) can be used and must link to planefinder.net

Embedding the Plane Finder map

You are welcome to embed the Plane Finder playback map on your website to offer visitors a more interactive experience. We suggest using the following HTML code:

<iframe src="//planefinder.net/data/report/BE1355-EI-GHK-7700-squawk-2019-12-10/map" width="800" height="600" seamless="seamless"></iframe>

Where our data comes from

Plane Finder has a global network of data feeds and antenna radars that receive data broadcast directly from aircraft. The primary technologies used are ADS-B and MLAT. We also show feeds from the FAA and a FLARM glider feed.

Click here to find out more about the Plane Finder network.

How we collect our data